Observation data for Menard on 05/15/2018      Previous  Date  Next       Current Mesonet Observations  Soil Data  Daily Summary Page  Observations in Plain Language
KMD1 150500Z 17006KT 19/17 A2999 RMK A01 T01870171  RH  090%=      5-min Rain = 0
KMD1 150501Z 17006KT 19/17 A2999 RMK A01 T01870171  RH  091%=      5-min Rain = 0
KMD1 150502Z 17007KT 19/17 A2999 RMK A01 T01870171  RH  091%=      5-min Rain = 0
KMD1 150503Z 17006KT 19/17 A2999 RMK A01 T01870171  RH  091%=      5-min Rain = 0
KMD1 150504Z 18006KT 19/17 A2999 RMK A01 T01870171  RH  091%=      5-min Rain = 0
KMD1 150505Z 18006KT 19/17 A2999 RMK A01 T01860171  RH  091%=      5-min Rain = 0
KMD1 150506Z 19006KT 19/17 A2999 RMK A01 T01870171  RH  091%=      5-min Rain = 0
KMD1 150507Z 18005KT 19/17 A2999 RMK A01 T01860171  RH  091%=      5-min Rain = 0
KMD1 150508Z 18004KT 19/17 A2999 RMK A01 T01860171  RH  091%=      5-min Rain = 0
KMD1 150509Z 17004KT 19/17 A2999 RMK A01 T01860171  RH  091%=      5-min Rain = 0
KMD1 150510Z 17005KT 19/17 A2999 RMK A01 T01860171  RH  091%=      5-min Rain = 0
KMD1 150511Z 18005KT 19/17 A2999 RMK A01 T01860171  RH  091%=      5-min Rain = 0
KMD1 150512Z 19006KT 19/17 A30 RMK A01 T01860171  RH  091%=      5-min Rain = 0
KMD1 150513Z 18007KT 19/17 A30 RMK A01 T01860172  RH  092%=      5-min Rain = 0
KMD1 150514Z 18007KT 19/17 A30 RMK A01 T01860173  RH  092%=      5-min Rain = 0
KMD1 150515Z 19005KT 19/17 A30 RMK A01 T01850172  RH  092%=      5-min Rain = 0
KMD1 150516Z 18005KT 19/17 A30 RMK A01 T01850171  RH  092%=      5-min Rain = 0
KMD1 150517Z 16004KT 18/17 A30 RMK A01 T01840170  RH  091%=      5-min Rain = 0
KMD1 150518Z 16005KT 18/17 A30 RMK A01 T01840170  RH  091%=      5-min Rain = 0
KMD1 150519Z 16006KT 19/17 A30 RMK A01 T01850170  RH  091%=      5-min Rain = 0
KMD1 150520Z 16008KT 18/17 A30 RMK A01 T01840169  RH  091%=      5-min Rain = 0
KMD1 150521Z 15008KT 19/17 A30 RMK A01 T01850168  RH  090%=      5-min Rain = 0
KMD1 150522Z 16008KT 19/17 A30 RMK A01 T01860168  RH  089%=      5-min Rain = 0
KMD1 150523Z 16006KT 19/17 A30 RMK A01 T01870168  RH  089%=      5-min Rain = 0
KMD1 150524Z 16007KT 19/17 A30 RMK A01 T01870169  RH  089%=      5-min Rain = 0
KMD1 150525Z 17006KT 19/17 A30 RMK A01 T01870169  RH  089%=      5-min Rain = 0
KMD1 150526Z 16006KT 19/17 A30 RMK A01 T01870170  RH  090%=      5-min Rain = 0
KMD1 150527Z 16006KT 19/17 A30 RMK A01 T01860170  RH  090%=      5-min Rain = 0
KMD1 150528Z 16005KT 19/17 A30 RMK A01 T01860170  RH  091%=      5-min Rain = 0
KMD1 150529Z 15004KT 19/17 A30 RMK A01 T01850170  RH  091%=      5-min Rain = 0
KMD1 150530Z 14004KT 19/17 A30 RMK A01 T01850170  RH  091%=      5-min Rain = 0
KMD1 150531Z 13004KT 19/17 A30 RMK A01 T01850170  RH  091%=      5-min Rain = 0
KMD1 150532Z 13006KT 19/17 A2999 RMK A01 T01850170  RH  091%=      5-min Rain = 0
KMD1 150533Z 13007KT 19/17 A2999 RMK A01 T01850170  RH  091%=      5-min Rain = 0
KMD1 150534Z 12007KT 19/17 A2999 RMK A01 T01850170  RH  091%=      5-min Rain = 0
KMD1 150535Z 12008KT 19/17 A2999 RMK A01 T01850169  RH  091%=      5-min Rain = 0
KMD1 150536Z 12007KT 19/17 A2999 RMK A01 T01850169  RH  091%=      5-min Rain = 0
KMD1 150537Z 12009KT 19/17 A2999 RMK A01 T01850169  RH  091%=      5-min Rain = 0
KMD1 150538Z 12009KT 19/17 A2998 RMK A01 T01850169  RH  091%=      5-min Rain = 0
KMD1 150539Z 12009KT 19/17 A2998 RMK A01 T01850169  RH  091%=      5-min Rain = 0
KMD1 150540Z 12008KT 19/17 A2998 RMK A01 T01850169  RH  091%=      5-min Rain = 0
KMD1 150541Z 12009KT 19/17 A2998 RMK A01 T01850170  RH  091%=      5-min Rain = 0
KMD1 150542Z 12010KT 19/17 A2998 RMK A01 T01850170  RH  091%=      5-min Rain = 0
KMD1 150543Z 12009KT 19/17 A2998 RMK A01 T01850170  RH  091%=      5-min Rain = 0
KMD1 150544Z 13009KT 19/17 A2998 RMK A01 T01850170  RH  091%=      5-min Rain = 0
KMD1 150545Z 13008KT 19/17 A2998 RMK A01 T01850170  RH  091%=      5-min Rain = 0
KMD1 150546Z 13007KT 19/17 A2998 RMK A01 T01850170  RH  091%=      5-min Rain = 0
KMD1 150547Z 14005KT 18/17 A2998 RMK A01 T01840170  RH  091%=      5-min Rain = 0
KMD1 150548Z 15006KT 18/17 A2998 RMK A01 T01840169  RH  091%=      5-min Rain = 0
KMD1 150549Z 16005KT 19/17 A2998 RMK A01 T01850169  RH  091%=      5-min Rain = 0
KMD1 150550Z 17006KT 18/17 A2998 RMK A01 T01840169  RH  091%=      5-min Rain = 0
KMD1 150551Z 17006KT 18/17 A2999 RMK A01 T01840169  RH  091%=      5-min Rain = 0
KMD1 150552Z 17007KT 18/17 A2999 RMK A01 T01840169  RH  091%=      5-min Rain = 0
KMD1 150553Z 18008KT 18/17 A2999 RMK A01 T01840169  RH  091%=      5-min Rain = 0
KMD1 150554Z 18008KT 18/17 A2999 RMK A01 T01840169  RH  091%=      5-min Rain = 0
KMD1 150555Z 18008KT 18/17 A2999 RMK A01 T01840169  RH  091%=      5-min Rain = 0
KMD1 150556Z 18008KT 19/17 A2999 RMK A01 T01850169  RH  091%=      5-min Rain = 0
KMD1 150557Z 18006KT 19/17 A2999 RMK A01 T01850170  RH  091%=      5-min Rain = 0
KMD1 150558Z 17008KT 19/17 A2999 RMK A01 T01850170  RH  091%=      5-min Rain = 0
KMD1 150559Z 17009KT 19/17 A2998 RMK A01 T01850170  RH  091%=      5-min Rain = 0
KMD1 150600Z 17009KT 19/17 A2998 RMK A01 T01860170  RH  091%=      5-min Rain = 0
KMD1 150601Z 18009KT 19/17 A2998 RMK A01 T01860170  RH  090%=      5-min Rain = 0
KMD1 150602Z 18007KT 19/17 A2998 RMK A01 T01870171  RH  090%=      5-min Rain = 0
KMD1 150603Z 18008KT 19/17 A2998 RMK A01 T01870171  RH  090%=      5-min Rain = 0
KMD1 150604Z 18008KT 19/17 A2998 RMK A01 T01870171  RH  091%=      5-min Rain = 0
KMD1 150605Z 18008KT 19/17 A2998 RMK A01 T01870172  RH  091%=      5-min Rain = 0
KMD1 150606Z 17010KT 19/17 A2998 RMK A01 T01870172  RH  091%=      5-min Rain = 0
KMD1 150607Z 18009KT 19/17 A2998 RMK A01 T01860173  RH  092%=      5-min Rain = 0
KMD1 150608Z 18008KT 19/17 A2998 RMK A01 T01860173  RH  092%=      5-min Rain = 0
KMD1 150609Z 18008KT 19/17 A2998 RMK A01 T01870173  RH  092%=      5-min Rain = 0
KMD1 150610Z 18008KT 19/17 A2998 RMK A01 T01870173  RH  092%=      5-min Rain = 0
KMD1 150611Z 19008KT 19/17 A2998 RMK A01 T01870173  RH  092%=      5-min Rain = 0
KMD1 150612Z 19008KT 19/17 A2998 RMK A01 T01870173  RH  092%=      5-min Rain = 0
KMD1 150613Z 19006KT 19/17 A2998 RMK A01 T01870173  RH  092%=      5-min Rain = 0
KMD1 150614Z 19009KT 19/17 A2998 RMK A01 T01860173  RH  092%=      5-min Rain = 0
KMD1 150615Z 19006KT 19/17 A2998 RMK A01 T01860173  RH  092%=      5-min Rain = 0
KMD1 150616Z 19008KT 19/17 A2998 RMK A01 T01860173  RH  092%=      5-min Rain = 0
KMD1 150617Z 19008KT 19/17 A2998 RMK A01 T01860173  RH  092%=      5-min Rain = 0
KMD1 150618Z 19007KT 19/17 A2998 RMK A01 T01860173  RH  092%=      5-min Rain = 0
KMD1 150619Z 19007KT 19/17 A2998 RMK A01 T01850172  RH  092%=      5-min Rain = 0
KMD1 150620Z 19006KT 19/17 A2997 RMK A01 T01860173  RH  092%=      5-min Rain = 0
KMD1 150621Z 19007KT 19/17 A2997 RMK A01 T01860173  RH  092%=      5-min Rain = 0
KMD1 150622Z 19007KT 19/17 A2997 RMK A01 T01860173  RH  092%=      5-min Rain = 0
KMD1 150623Z 19006KT 19/17 A2997 RMK A01 T01850173  RH  092%=      5-min Rain = 0
KMD1 150624Z 19006KT 19/17 A2997 RMK A01 T01850173  RH  092%=      5-min Rain = 0
KMD1 150625Z 19007KT 19/17 A2997 RMK A01 T01850172  RH  092%=      5-min Rain = 0
KMD1 150626Z 18006KT 19/17 A2997 RMK A01 T01850172  RH  092%=      5-min Rain = 0
KMD1 150627Z 19006KT 19/17 A2997 RMK A01 T01850172  RH  092%=      5-min Rain = 0
KMD1 150628Z 19006KT 19/17 A2997 RMK A01 T01850172  RH  092%=      5-min Rain = 0
KMD1 150629Z 19006KT 19/17 A2996 RMK A01 T01850172  RH  092%=      5-min Rain = 0
KMD1 150630Z 20007KT 19/17 A2996 RMK A01 T01850172  RH  092%=      5-min Rain = 0
KMD1 150631Z 20005KT 19/17 A2996 RMK A01 T01850172  RH  092%=      5-min Rain = 0
KMD1 150632Z 19007KT 19/17 A2996 RMK A01 T01850172  RH  092%=      5-min Rain = 0
KMD1 150633Z 20006KT 19/17 A2996 RMK A01 T01850171  RH  092%=      5-min Rain = 0
KMD1 150634Z 20005KT 19/17 A2996 RMK A01 T01850172  RH  092%=      5-min Rain = 0
KMD1 150635Z 20006KT 19/17 A2996 RMK A01 T01850171  RH  092%=      5-min Rain = 0
KMD1 150636Z 20005KT 19/17 A2996 RMK A01 T01850172  RH  092%=      5-min Rain = 0
KMD1 150637Z 20005KT 19/17 A2996 RMK A01 T01850172  RH  092%=      5-min Rain = 0
KMD1 150638Z 20005KT 18/17 A2996 RMK A01 T01840171  RH  092%=      5-min Rain = 0
KMD1 150639Z 19004KT 18/17 A2996 RMK A01 T01840172  RH  092%=      5-min Rain = 0
KMD1 150640Z 19005KT 18/17 A2996 RMK A01 T01840171  RH  092%=      5-min Rain = 0
KMD1 150641Z 20004KT 18/17 A2996 RMK A01 T01840172  RH  093%=      5-min Rain = 0
KMD1 150642Z 20005KT 18/17 A2996 RMK A01 T01840172  RH  093%=      5-min Rain = 0
KMD1 150643Z 20005KT 18/17 A2996 RMK A01 T01830172  RH  093%=      5-min Rain = 0
KMD1 150644Z 20004KT 18/17 A2996 RMK A01 T01830172  RH  093%=      5-min Rain = 0
KMD1 150645Z 20004KT 18/17 A2996 RMK A01 T01830172  RH  093%=      5-min Rain = 0
KMD1 150646Z 20004KT 18/17 A2996 RMK A01 T01830172  RH  093%=      5-min Rain = 0
KMD1 150647Z 20005KT 18/17 A2996 RMK A01 T01830172  RH  093%=      5-min Rain = 0
KMD1 150648Z 21004KT 18/17 A2995 RMK A01 T01830172  RH  093%=      5-min Rain = 0
KMD1 150649Z 22004KT 18/17 A2995 RMK A01 T01820172  RH  093%=      5-min Rain = 0
KMD1 150650Z 21005KT 18/17 A2995 RMK A01 T01820172  RH  094%=      5-min Rain = 0
KMD1 150651Z 21005KT 18/17 A2995 RMK A01 T01820172  RH  094%=      5-min Rain = 0
KMD1 150652Z 21005KT 18/17 A2995 RMK A01 T01820172  RH  094%=      5-min Rain = 0
KMD1 150653Z 21005KT 18/17 A2995 RMK A01 T01820172  RH  094%=      5-min Rain = 0
KMD1 150654Z 20006KT 18/17 A2995 RMK A01 T01820172  RH  094%=      5-min Rain = 0
KMD1 150655Z 21005KT 18/17 A2995 RMK A01 T01820172  RH  094%=      5-min Rain = 0
KMD1 150656Z 22005KT 18/17 A2995 RMK A01 T01820172  RH  094%=      5-min Rain = 0
KMD1 150657Z 20005KT 18/17 A2995 RMK A01 T01820172  RH  094%=      5-min Rain = 0
KMD1 150658Z 20006KT 18/17 A2995 RMK A01 T01820172  RH  094%=      5-min Rain = 0
KMD1 150659Z 20006KT 18/17 A2995 RMK A01 T01820172  RH  094%=      5-min Rain = 0
KMD1 150700Z 20005KT 18/17 A2995 RMK A01 T01810171  RH  094%=      5-min Rain = 0
KMD1 150701Z 21005KT 18/17 A2995 RMK A01 T01810171  RH  094%=      5-min Rain = 0
KMD1 150702Z 20005KT 18/17 A2995 RMK A01 T01810172  RH  094%=      5-min Rain = 0
KMD1 150703Z 21005KT 18/17 A2995 RMK A01 T01810171  RH  094%=      5-min Rain = 0
KMD1 150704Z 21004KT 18/17 A2995 RMK A01 T01810172  RH  094%=      5-min Rain = 0
KMD1 150705Z 22006KT 18/17 A2995 RMK A01 T01810171  RH  094%=      5-min Rain = 0
KMD1 150706Z 22005KT 18/17 A2995 RMK A01 T01810172  RH  094%=      5-min Rain = 0
KMD1 150707Z 22004KT 18/17 A2995 RMK A01 T01810171  RH  094%=      5-min Rain = 0
KMD1 150708Z 23004KT 18/17 A2994 RMK A01 T01810171  RH  094%=      5-min Rain = 0
KMD1 150709Z 22006KT 18/17 A2994 RMK A01 T01810171  RH  094%=      5-min Rain = 0
KMD1 150710Z 23005KT 18/17 A2994 RMK A01 T01810171  RH  094%=      5-min Rain = 0
KMD1 150711Z 23005KT 18/17 A2994 RMK A01 T01810171  RH  094%=      5-min Rain = 0
KMD1 150712Z 23004KT 18/17 A2994 RMK A01 T01810171  RH  094%=      5-min Rain = 0
KMD1 150713Z 23004KT 18/17 A2994 RMK A01 T01810172  RH  094%=      5-min Rain = 0
KMD1 150714Z 23004KT 18/17 A2994 RMK A01 T01810171  RH  094%=      5-min Rain = 0
KMD1 150715Z 23005KT 18/17 A2994 RMK A01 T01810171  RH  094%=      5-min Rain = 0
KMD1 150716Z 23005KT 18/17 A2994 RMK A01 T01810171  RH  094%=      5-min Rain = 0
KMD1 150717Z 24005KT 18/17 A2994 RMK A01 T01800171  RH  094%=      5-min Rain = 0
KMD1 150718Z 23006KT 18/17 A2994 RMK A01 T01800171  RH  094%=      5-min Rain = 0
KMD1 150719Z 24006KT 18/17 A2994 RMK A01 T01800171  RH  094%=      5-min Rain = 0
KMD1 150720Z 24005KT 18/17 A2994 RMK A01 T01800171  RH  094%=      5-min Rain = 0
KMD1 150721Z 24005KT 18/17 A2994 RMK A01 T01810171  RH  094%=      5-min Rain = 0
KMD1 150722Z 24007KT 18/17 A2994 RMK A01 T01810171  RH  094%=      5-min Rain = 0
KMD1 150723Z 24007KT 18/17 A2994 RMK A01 T01810171  RH  094%=      5-min Rain = 0
KMD1 150724Z 24006KT 18/17 A2994 RMK A01 T01810171  RH  094%=      5-min Rain = 0
KMD1 150725Z 24006KT 18/17 A2994 RMK A01 T01820171  RH  094%=      5-min Rain = 0
KMD1 150726Z 25006KT 18/17 A2994 RMK A01 T01820171  RH  094%=      5-min Rain = 0
KMD1 150727Z 24006KT 18/17 A2994 RMK A01 T01810171  RH  094%=      5-min Rain = 0
KMD1 150728Z 24006KT 18/17 A2994 RMK A01 T01820171  RH  094%=      5-min Rain = 0
KMD1 150729Z 25006KT 18/17 A2994 RMK A01 T01820171  RH  094%=      5-min Rain = 0
KMD1 150730Z 25006KT 18/17 A2994 RMK A01 T01820171  RH  094%=      5-min Rain = 0
KMD1 150731Z 25006KT 18/17 A2994 RMK A01 T01810171  RH  094%=      5-min Rain = 0
KMD1 150732Z 25006KT 18/17 A2994 RMK A01 T01820171  RH  094%=      5-min Rain = 0
KMD1 150733Z 26005KT 18/17 A2994 RMK A01 T01810171  RH  094%=      5-min Rain = 0
KMD1 150734Z 26005KT 18/17 A2994 RMK A01 T01820171  RH  094%=      5-min Rain = 0
KMD1 150735Z 26005KT 18/17 A2994 RMK A01 T01820171  RH  094%=      5-min Rain = 0
KMD1 150736Z 26004KT 18/17 A2994 RMK A01 T01810171  RH  094%=      5-min Rain = 0
KMD1 150737Z 25004KT 18/17 A2993 RMK A01 T01810171  RH  094%=      5-min Rain = 0
KMD1 150738Z 26004KT 18/17 A2993 RMK A01 T01810171  RH  094%=      5-min Rain = 0
KMD1 150739Z 26004KT 18/17 A2993 RMK A01 T01810171  RH  094%=      5-min Rain = 0
KMD1 150740Z 26004KT 18/17 A2993 RMK A01 T01810171  RH  094%=      5-min Rain = 0
KMD1 150741Z 27003KT 18/17 A2993 RMK A01 T01810171  RH  094%=      5-min Rain = 0
KMD1 150742Z 27003KT 18/17 A2993 RMK A01 T01810171  RH  094%=      5-min Rain = 0
KMD1 150743Z 28003KT 18/17 A2993 RMK A01 T01810171  RH  094%=      5-min Rain = 0
KMD1 150744Z 26003KT 18/17 A2993 RMK A01 T01810171  RH  094%=      5-min Rain = 0
KMD1 150745Z 27003KT 18/17 A2993 RMK A01 T01810171  RH  094%=      5-min Rain = 0
KMD1 150746Z 27003KT 18/17 A2993 RMK A01 T01800171  RH  094%=      5-min Rain = 0
KMD1 150747Z 28002KT 18/17 A2993 RMK A01 T01800171  RH  094%=      5-min Rain = 0
KMD1 150748Z 27003KT 18/17 A2993 RMK A01 T01800171  RH  094%=      5-min Rain = 0
KMD1 150749Z 26002KT 18/17 A2993 RMK A01 T01800171  RH  095%=      5-min Rain = 0
KMD1 150750Z 27002KT 18/17 A2993 RMK A01 T01800171  RH  094%=      5-min Rain = 0
KMD1 150751Z 28002KT 18/17 A2993 RMK A01 T01800171  RH  095%=      5-min Rain = 0
KMD1 150752Z 29002KT 18/17 A2993 RMK A01 T01800171  RH  095%=      5-min Rain = 0
KMD1 150753Z 28002KT 18/17 A2993 RMK A01 T01800171  RH  095%=      5-min Rain = 0
KMD1 150754Z 29002KT 18/17 A2993 RMK A01 T01800171  RH  095%=      5-min Rain = 0
KMD1 150755Z 28001KT 18/17 A2993 RMK A01 T01800171  RH  095%=      5-min Rain = 0
KMD1 150756Z 28001KT 18/17 A2993 RMK A01 T01800171  RH  095%=      5-min Rain = 0
KMD1 150757Z 26001KT 18/17 A2993 RMK A01 T01800171  RH  095%=      5-min Rain = 0
KMD1 150758Z 24001KT 18/17 A2993 RMK A01 T01790171  RH  095%=      5-min Rain = 0
KMD1 150759Z 20002KT 18/17 A2992 RMK A01 T01790171  RH  095%=      5-min Rain = 0
KMD1 150800Z 20003KT 18/17 A2992 RMK A01 T01790171  RH  095%=      5-min Rain = 0
KMD1 150801Z 21002KT 18/17 A2992 RMK A01 T01790171  RH  095%=      5-min Rain = 0
KMD1 150802Z 19003KT 18/17 A2992 RMK A01 T01800171  RH  095%=      5-min Rain = 0
KMD1 150803Z 19003KT 18/17 A2992 RMK A01 T01810174  RH  095%=      5-min Rain = 0
KMD1 150804Z 20004KT 18/17 A2992 RMK A01 T01830174  RH  095%=      5-min Rain = 0
KMD1 150805Z 20006KT 19/17 A2992 RMK A01 T01850174  RH  093%=      5-min Rain = 0
KMD1 150806Z 20006KT 19/17 A2992 RMK A01 T01880173  RH  091%=      5-min Rain = 0
KMD1 150807Z 20005KT 19/17 A2992 RMK A01 T01900172  RH  089%=      5-min Rain = 0
KMD1 150808Z 21007KT 19/17 A2992 RMK A01 T01910172  RH  088%=      5-min Rain = 0
KMD1 150809Z 21006KT 19/17 A2992 RMK A01 T01920171  RH  087%=      5-min Rain = 0
KMD1 150810Z 19006KT 19/17 A2992 RMK A01 T01940171  RH  087%=      5-min Rain = 0
KMD1 150811Z 21006KT 19/17 A2992 RMK A01 T01940172  RH  087%=      5-min Rain = 0
KMD1 150812Z 20009KT 20/17 A2992 RMK A01 T01950172  RH  087%=      5-min Rain = 0
KMD1 150813Z 21006KT 20/17 A2992 RMK A01 T01950171  RH  086%=      5-min Rain = 0
KMD1 150814Z 20008KT 20/17 A2992 RMK A01 T01950171  RH  086%=      5-min Rain = 0
KMD1 150815Z 20006KT 20/17 A2992 RMK A01 T01960171  RH  086%=      5-min Rain = 0
KMD1 150816Z 20007KT 20/17 A2992 RMK A01 T01960171  RH  085%=      5-min Rain = 0
KMD1 150817Z 20007KT 20/17 A2992 RMK A01 T01970171  RH  085%=      5-min Rain = 0
KMD1 150818Z 20007KT 20/17 A2992 RMK A01 T01970171  RH  085%=      5-min Rain = 0
KMD1 150819Z 20005KT 20/17 A2992 RMK A01 T01970172  RH  085%=      5-min Rain = 0
KMD1 150820Z 20006KT 20/17 A2991 RMK A01 T01970172  RH  085%=      5-min Rain = 0
KMD1 150821Z 21006KT 20/17 A2991 RMK A01 T01970172  RH  085%=      5-min Rain = 0
KMD1 150822Z 20008KT 20/17 A2991 RMK A01 T01970172  RH  086%=      5-min Rain = 0
KMD1 150823Z 19007KT 20/17 A2991 RMK A01 T01970172  RH  085%=      5-min Rain = 0
KMD1 150824Z 20007KT 20/17 A2991 RMK A01 T01970172  RH  085%=      5-min Rain = 0
KMD1 150825Z 20008KT 20/17 A2991 RMK A01 T01970172  RH  085%=      5-min Rain = 0
KMD1 150826Z 20007KT 20/17 A2991 RMK A01 T01970172  RH  086%=      5-min Rain = 0
KMD1 150827Z 20009KT 20/17 A2991 RMK A01 T01970173  RH  086%=      5-min Rain = 0
KMD1 150828Z 19011KT 20/17 A2991 RMK A01 T01970172  RH  085%=      5-min Rain = 0
KMD1 150829Z 19006KT 20/17 A2991 RMK A01 T01980172  RH  085%=      5-min Rain = 0
KMD1 150830Z 19010KT 20/17 A2991 RMK A01 T01980172  RH  085%=      5-min Rain = 0
KMD1 150831Z 20008KT 20/17 A2991 RMK A01 T01980172  RH  084%=      5-min Rain = 0
KMD1 150832Z 19011KT 20/17 A2991 RMK A01 T01990172  RH  084%=      5-min Rain = 0
KMD1 150833Z 19010KT 20/17 A2991 RMK A01 T01990172  RH  084%=      5-min Rain = 0
KMD1 150834Z 20008KT 20/17 A2991 RMK A01 T01990171  RH  084%=      5-min Rain = 0
KMD1 150835Z 20010KT 20/17 A2991 RMK A01 T02000172  RH  084%=      5-min Rain = 0
KMD1 150836Z 20011KT 20/17 A2991 RMK A01 T02000172  RH  084%=      5-min Rain = 0
KMD1 150837Z 20009KT 20/17 A2991 RMK A01 T02000172  RH  084%=      5-min Rain = 0
KMD1 150838Z 20010KT 20/17 A2991 RMK A01 T02000172  RH  084%=      5-min Rain = 0
KMD1 150839Z 19012KT 20/17 A2991 RMK A01 T02000172  RH  084%=      5-min Rain = 0
KMD1 150840Z 20011KT 20/17 A2991 RMK A01 T02010172  RH  084%=      5-min Rain = 0
KMD1 150841Z 19010KT 20/17 A2991 RMK A01 T02000172  RH  084%=      5-min Rain = 0
KMD1 150842Z 20009KT 20/17 A2991 RMK A01 T02000172  RH  084%=      5-min Rain = 0
KMD1 150843Z 20009G15KT 20/17 A299 RMK A01 T02010172  RH  084%=      5-min Rain = 0
KMD1 150844Z 19009KT 20/17 A299 RMK A01 T02000172  RH  084%=      5-min Rain = 0
KMD1 150845Z 20008G14KT 20/17 A299 RMK A01 T02000172  RH  084%=      5-min Rain = 0
KMD1 150846Z 20011KT 20/17 A299 RMK A01 T02010172  RH  084%=      5-min Rain = 0
KMD1 150847Z 20009KT 20/17 A299 RMK A01 T02000172  RH  084%=      5-min Rain = 0
KMD1 150848Z 20008KT 20/17 A299 RMK A01 T02010172  RH  084%=      5-min Rain = 0
KMD1 150849Z 20009KT 20/17 A299 RMK A01 T02000172  RH  084%=      5-min Rain = 0
KMD1 150850Z 20012KT 20/17 A299 RMK A01 T02000172  RH  084%=      5-min Rain = 0
KMD1 150851Z 19010KT 20/17 A299 RMK A01 T02010171  RH  083%=      5-min Rain = 0
KMD1 150852Z 20009KT 20/17 A299 RMK A01 T02010171  RH  083%=      5-min Rain = 0
KMD1 150853Z 20010KT 20/17 A299 RMK A01 T02010171  RH  083%=      5-min Rain = 0
KMD1 150854Z 20009G15KT 20/17 A299 RMK A01 T02010172  RH  083%=      5-min Rain = 0
KMD1 150855Z 20011KT 20/17 A299 RMK A01 T02010172  RH  083%=      5-min Rain = 0
KMD1 150856Z 20009KT 20/17 A299 RMK A01 T02020171  RH  083%=      5-min Rain = 0
KMD1 150857Z 20009G15KT 20/17 A299 RMK A01 T02020171  RH  083%=      5-min Rain = 0
KMD1 150858Z 20010KT 20/17 A299 RMK A01 T02020171  RH  082%=      5-min Rain = 0
KMD1 150859Z 20008KT 20/17 A299 RMK A01 T02030170  RH  082%=      5-min Rain = 0
KMD1 150900Z 19011KT 20/17 A299 RMK A01 T02030171  RH  082%=      5-min Rain = 0
KMD1 150901Z 20010KT 20/17 A299 RMK A01 T02030171  RH  081%=      5-min Rain = 0
KMD1 150902Z 20010KT 20/17 A299 RMK A01 T02040171  RH  081%=      5-min Rain = 0
KMD1 150903Z 20009KT 20/17 A299 RMK A01 T02040171  RH  081%=      5-min Rain = 0
KMD1 150904Z 20011KT 20/17 A299 RMK A01 T02040171  RH  081%=      5-min Rain = 0
KMD1 150905Z 20008G13KT 20/17 A299 RMK A01 T02030170  RH  081%=      5-min Rain = 0
KMD1 150906Z 19008KT 20/17 A299 RMK A01 T02040171  RH  081%=      5-min Rain = 0
KMD1 150907Z 20012KT 20/17 A299 RMK A01 T02040171  RH  081%=      5-min Rain = 0
KMD1 150908Z 20011KT 20/17 A299 RMK A01 T02040170  RH  081%=      5-min Rain = 0
KMD1 150909Z 20009KT 20/17 A299 RMK A01 T02040170  RH  081%=      5-min Rain = 0
KMD1 150910Z 19009KT 20/17 A299 RMK A01 T02040170  RH  081%=      5-min Rain = 0
KMD1 150911Z 20009KT 21/17 A299 RMK A01 T02050171  RH  081%=      5-min Rain = 0
KMD1 150912Z 20010KT 21/17 A299 RMK A01 T02050171  RH  081%=      5-min Rain = 0
KMD1 150913Z 19009KT 20/17 A299 RMK A01 T02040170  RH  081%=      5-min Rain = 0
KMD1 150914Z 20009KT 21/17 A299 RMK A01 T02050170  RH  081%=      5-min Rain = 0
KMD1 150915Z 20009KT 21/17 A299 RMK A01 T02050171  RH  081%=      5-min Rain = 0
KMD1 150916Z 20010KT 21/17 A299 RMK A01 T02050171  RH  081%=      5-min Rain = 0
KMD1 150917Z 19009KT 20/17 A299 RMK A01 T02040170  RH  081%=      5-min Rain = 0
KMD1 150918Z 21008KT 20/17 A299 RMK A01 T02040170  RH  081%=      5-min Rain = 0
KMD1 150919Z 20009KT 21/17 A299 RMK A01 T02050171  RH  081%=      5-min Rain = 0
KMD1 150920Z 20011KT 20/17 A299 RMK A01 T02040171  RH  081%=      5-min Rain = 0
KMD1 150921Z 20010KT 20/17 A299 RMK A01 T02040170  RH  081%=      5-min Rain = 0
KMD1 150922Z 19007KT 21/17 A299 RMK A01 T02050170  RH  080%=      5-min Rain = 0
KMD1 150923Z 20008KT 20/17 A2991 RMK A01 T02040170  RH  081%=      5-min Rain = 0
KMD1 150924Z 21007KT 21/17 A2991 RMK A01 T02050171  RH  081%=      5-min Rain = 0
KMD1 150925Z 20009KT 20/17 A2991 RMK A01 T02040171  RH  081%=      5-min Rain = 0
KMD1 150926Z 20007KT 21/17 A2991 RMK A01 T02050171  RH  081%=      5-min Rain = 0
KMD1 150927Z 21007KT 21/17 A2991 RMK A01 T02050171  RH  081%=      5-min Rain = 0
KMD1 150928Z 20009KT 20/17 A2991 RMK A01 T02040171  RH  081%=      5-min Rain = 0
KMD1 150929Z 19009G14KT 20/17 A2991 RMK A01 T02040170  RH  081%=      5-min Rain = 0
KMD1 150930Z 21009KT 20/17 A2991 RMK A01 T02040170  RH  081%=      5-min Rain = 0
KMD1 150931Z 20008KT 21/17 A2991 RMK A01 T02050171  RH  081%=      5-min Rain = 0
KMD1 150932Z 21008KT 20/17 A2991 RMK A01 T02040170  RH  081%=      5-min Rain = 0
KMD1 150933Z 20006KT 20/17 A2991 RMK A01 T02040170  RH  081%=      5-min Rain = 0
KMD1 150934Z 21007KT 21/17 A2991 RMK A01 T02050170  RH  081%=      5-min Rain = 0
KMD1 150935Z 21007KT 21/17 A2991 RMK A01 T02050170  RH  081%=      5-min Rain = 0
KMD1 150936Z 21007KT 21/17 A2991 RMK A01 T02050170  RH  081%=      5-min Rain = 0
KMD1 150937Z 21009KT 20/17 A2991 RMK A01 T02040171  RH  081%=      5-min Rain = 0
KMD1 150938Z 20008KT 20/17 A2992 RMK A01 T02040171  RH  081%=      5-min Rain = 0
KMD1 150939Z 22006KT 20/17 A2992 RMK A01 T02040170  RH  081%=      5-min Rain = 0
KMD1 150940Z 21006KT 21/17 A2992 RMK A01 T02050171  RH  081%=      5-min Rain = 0
KMD1 150941Z 21008KT 20/17 A2992 RMK A01 T02040171  RH  081%=      5-min Rain = 0
KMD1 150942Z 21007KT 21/17 A2992 RMK A01 T02050171  RH  081%=      5-min Rain = 0
KMD1 150943Z 22006KT 21/17 A2992 RMK A01 T02050171  RH  081%=      5-min Rain = 0
KMD1 150944Z 21005KT 20/17 A2992 RMK A01 T02040171  RH  081%=      5-min Rain = 0
KMD1 150945Z 22006KT 20/17 A2992 RMK A01 T02040172  RH  082%=      5-min Rain = 0
KMD1 150946Z 22007KT 20/17 A2992 RMK A01 T02030172  RH  082%=      5-min Rain = 0
KMD1 150947Z 21009KT 20/17 A2992 RMK A01 T02030172  RH  082%=      5-min Rain = 0
KMD1 150948Z 22008KT 20/17 A2992 RMK A01 T02030171  RH  082%=      5-min Rain = 0
KMD1 150949Z 21007KT 20/17 A2992 RMK A01 T02030172  RH  082%=      5-min Rain = 0
KMD1 150950Z 21008KT 20/17 A2992 RMK A01 T02030172  RH  082%=      5-min Rain = 0
KMD1 150956Z 23006KT 20/17 A2992 RMK A01 T02010172  RH  083%=      5-min Rain = 0
KMD1 150957Z 23007KT 20/17 A2992 RMK A01 T02010172  RH  083%=      5-min Rain = 0
KMD1 150958Z 23006KT 20/17 A2992 RMK A01 T02010172  RH  083%=      5-min Rain = 0
KMD1 150959Z 24005KT 20/17 A2992 RMK A01 T02020172  RH  083%=      5-min Rain = 0
KMD1 151000Z 23005KT 20/17 A2992 RMK A01 T02010172  RH  083%=      5-min Rain = 0
KMD1 151001Z 23006KT 20/17 A2992 RMK A01 T02010172  RH  083%=      5-min Rain = 0
KMD1 151002Z 23006KT 20/17 A2992 RMK A01 T02010172  RH  083%=      5-min Rain = 0
KMD1 151003Z 22008KT 20/17 A2992 RMK A01 T02010172  RH  083%=      5-min Rain = 0
KMD1 151004Z 22007KT 20/17 A2992 RMK A01 T02020172  RH  083%=      5-min Rain = 0
KMD1 151005Z 22006KT 20/17 A2992 RMK A01 T02020172  RH  083%=      5-min Rain = 0
KMD1 151006Z 22006KT 20/17 A2992 RMK A01 T02020172  RH  083%=      5-min Rain = 0
KMD1 151007Z 23005KT 20/17 A2992 RMK A01 T02020173  RH  083%=      5-min Rain = 0
KMD1 151008Z 23006KT 20/17 A2992 RMK A01 T02020173  RH  083%=      5-min Rain = 0
KMD1 151009Z 22004KT 20/17 A2992 RMK A01 T02020172  RH  083%=      5-min Rain = 0
KMD1 151010Z 22004KT 20/17 A2992 RMK A01 T02020172  RH  083%=      5-min Rain = 0
KMD1 151011Z 23005G11KT 20/17 A2992 RMK A01 T02020173  RH  083%=      5-min Rain = 0
KMD1 151012Z 22006KT 20/17 A2992 RMK A01 T02010173  RH  083%=      5-min Rain = 0
KMD1 151013Z 23005KT 20/17 A2992 RMK A01 T02010172  RH  083%=      5-min Rain = 0
KMD1 151014Z 22005KT 20/17 A2992 RMK A01 T02020172  RH  083%=      5-min Rain = 0
KMD1 151015Z 24003KT 20/17 A2992 RMK A01 T02020173  RH  083%=      5-min Rain = 0
KMD1 151016Z 23003KT 20/17 A2992 RMK A01 T02020173  RH  083%=      5-min Rain = 0
KMD1 151017Z 22005KT 20/17 A2992 RMK A01 T02020173  RH  084%=      5-min Rain = 0
KMD1 151018Z 23006KT 20/17 A2992 RMK A01 T02020173  RH  084%=      5-min Rain = 0
KMD1 151019Z 21007KT 20/17 A2992 RMK A01 T02010173  RH  084%=      5-min Rain = 0
KMD1 151020Z 23006KT 20/17 A2992 RMK A01 T02010173  RH  084%=      5-min Rain = 0
KMD1 151021Z 22006KT 20/17 A2992 RMK A01 T02020173  RH  084%=      5-min Rain = 0
KMD1 151022Z 22005KT 20/17 A2992 RMK A01 T02020174  RH  084%=      5-min Rain = 0
KMD1 151023Z 22006KT 20/17 A2992 RMK A01 T02020174  RH  084%=      5-min Rain = 0
KMD1 151024Z 24005KT 20/17 A2992 RMK A01 T02020174  RH  084%=      5-min Rain = 0
KMD1 151025Z 22005KT 20/17 A2992 RMK A01 T02020174  RH  084%=      5-min Rain = 0
KMD1 151026Z 23006KT 20/17 A2992 RMK A01 T02020174  RH  084%=      5-min Rain = 0
KMD1 151027Z 22006KT 20/17 A2992 RMK A01 T02020174  RH  084%=      5-min Rain = 0
KMD1 151028Z 22005KT 20/18 A2992 RMK A01 T02020175  RH  084%=      5-min Rain = 0
KMD1 151029Z 23007KT 20/18 A2992 RMK A01 T02020175  RH  084%=      5-min Rain = 0
KMD1 151030Z 22007KT 20/18 A2992 RMK A01 T02030176  RH  084%=      5-min Rain = 0
KMD1 151031Z 22006KT 20/18 A2992 RMK A01 T02030175  RH  084%=      5-min Rain = 0
KMD1 151032Z 24005KT 20/18 A2992 RMK A01 T02030176  RH  084%=      5-min Rain = 0
KMD1 151033Z 22007KT 20/18 A2992 RMK A01 T02040176  RH  084%=      5-min Rain = 0
KMD1 151034Z 22007KT 20/18 A2992 RMK A01 T02040176  RH  084%=      5-min Rain = 0
KMD1 151035Z 23004KT 20/18 A2992 RMK A01 T02040176  RH  084%=      5-min Rain = 0
KMD1 151036Z 22006KT 21/18 A2992 RMK A01 T02050177  RH  084%=      5-min Rain = 0
KMD1 151037Z 22006KT 20/18 A2992 RMK A01 T02040177  RH  084%=      5-min Rain = 0
KMD1 151038Z 24006KT 20/18 A2992 RMK A01 T02040177  RH  084%=      5-min Rain = 0
KMD1 151039Z 22003KT 20/18 A2992 RMK A01 T02040177  RH  085%=      5-min Rain = 0
KMD1 151040Z 23006KT 20/18 A2992 RMK A01 T02040178  RH  085%=      5-min Rain = 0
KMD1 151041Z 22008KT 20/18 A2992 RMK A01 T02040178  RH  085%=      5-min Rain = 0
KMD1 151042Z 23008KT 20/18 A2992 RMK A01 T02040178  RH  085%=      5-min Rain = 0
KMD1 151043Z 24005KT 20/18 A2992 RMK A01 T02040177  RH  085%=      5-min Rain = 0
KMD1 151044Z 23006KT 20/18 A2992 RMK A01 T02040178  RH  085%=      5-min Rain = 0
KMD1 151045Z 24007KT 20/18 A2992 RMK A01 T02040179  RH  085%=      5-min Rain = 0
KMD1 151046Z 24008KT 20/18 A2992 RMK A01 T02040178  RH  085%=      5-min Rain = 0
KMD1 151047Z 23008KT 20/18 A2992 RMK A01 T02040178  RH  085%=      5-min Rain = 0
KMD1 151048Z 23006KT 21/18 A2992 RMK A01 T02050178  RH  085%=      5-min Rain = 0
KMD1 151049Z 23007KT 21/18 A2992 RMK A01 T02050179  RH  085%=      5-min Rain = 0
KMD1 151050Z 23008KT 21/18 A2992 RMK A01 T02050179  RH  085%=      5-min Rain = 0
KMD1 151051Z 22007KT 20/18 A2992 RMK A01 T02040179  RH  085%=      5-min Rain = 0
KMD1 151052Z 22007KT 20/18 A2992 RMK A01 T02040179  RH  085%=      5-min Rain = 0
KMD1 151053Z 23006KT 20/18 A2992 RMK A01 T02040179  RH  085%=      5-min Rain = 0
KMD1 151054Z 22006KT 20/18 A2992 RMK A01 T02040179  RH  085%=      5-min Rain = 0
KMD1 151055Z 24005KT 20/18 A2992 RMK A01 T02040179  RH  086%=      5-min Rain = 0
KMD1 151056Z 22006KT 20/18 A2992 RMK A01 T02040179  RH  086%=      5-min Rain = 0
KMD1 151057Z 22005KT 20/18 A2992 RMK A01 T02040180  RH  086%=      5-min Rain = 0
KMD1 151058Z 22006KT 20/18 A2992 RMK A01 T02040180  RH  086%=      5-min Rain = 0
KMD1 151059Z 22008KT 20/18 A2992 RMK A01 T02030181  RH  087%=      5-min Rain = 0
KMD1 151100Z 21007KT 20/18 A2992 RMK A01 T02040181  RH  087%=      5-min Rain = 0
KMD1 151101Z 22005KT 20/18 A2992 RMK A01 T02030181  RH  087%=      5-min Rain = 0
KMD1 151102Z 22004KT 20/18 A2992 RMK A01 T02030181  RH  087%=      5-min Rain = 0
KMD1 151103Z 21005KT 20/18 A2992 RMK A01 T02040181  RH  087%=      5-min Rain = 0
KMD1 151104Z 23004KT 20/18 A2992 RMK A01 T02030181  RH  087%=      5-min Rain = 0
KMD1 151105Z 22004KT 20/18 A2992 RMK A01 T02040182  RH  087%=      5-min Rain = 0
KMD1 151106Z 23004KT 20/18 A2992 RMK A01 T02030182  RH  087%=      5-min Rain = 0
KMD1 151107Z 23005KT 20/18 A2992 RMK A01 T02040183  RH  088%=      5-min Rain = 0
KMD1 151108Z 25003KT 20/18 A2992 RMK A01 T02030182  RH  088%=      5-min Rain = 0
KMD1 151109Z 24004KT 20/18 A2992 RMK A01 T02030182  RH  088%=      5-min Rain = 0
KMD1 151110Z 24005KT 20/18 A2992 RMK A01 T02030183  RH  088%=      5-min Rain = 0
KMD1 151111Z 24005KT 20/18 A2993 RMK A01 T02030183  RH  088%=      5-min Rain = 0
KMD1 151112Z 23006KT 20/18 A2993 RMK A01 T02030183  RH  088%=      5-min Rain = 0
KMD1 151113Z 22006KT 20/18 A2993 RMK A01 T02040183  RH  088%=      5-min Rain = 0
KMD1 151114Z 24005KT 20/18 A2993 RMK A01 T02040183  RH  088%=      5-min Rain = 0
KMD1 151115Z 23006KT 20/18 A2993 RMK A01 T02040183  RH  087%=      5-min Rain = 0
KMD1 151116Z 25003KT 21/18 A2993 RMK A01 T02050183  RH  087%=      5-min Rain = 0
KMD1 151117Z 24004KT 21/18 A2993 RMK A01 T02050183  RH  087%=      5-min Rain = 0
KMD1 151118Z 25003KT 21/18 A2993 RMK A01 T02050183  RH  087%=      5-min Rain = 0
KMD1 151119Z 24003KT 20/18 A2993 RMK A01 T02040183  RH  087%=      5-min Rain = 0
KMD1 151120Z 24004KT 20/18 A2993 RMK A01 T02040183  RH  087%=      5-min Rain = 0
KMD1 151121Z 24003KT 20/18 A2993 RMK A01 T02040183  RH  088%=      5-min Rain = 0
KMD1 151122Z 24004KT 20/18 A2993 RMK A01 T02040183  RH  088%=      5-min Rain = 0
KMD1 151123Z 23004KT 20/18 A2993 RMK A01 T02030183  RH  088%=      5-min Rain = 0
KMD1 151124Z 23003KT 20/18 A2993 RMK A01 T02030183  RH  088%=      5-min Rain = 0
KMD1 151125Z 22003KT 20/18 A2993 RMK A01 T02030182  RH  088%=      5-min Rain = 0
KMD1 151126Z 23002KT 20/18 A2993 RMK A01 T02030183  RH  088%=      5-min Rain = 0
KMD1 151127Z 23004KT 20/18 A2993 RMK A01 T02030182  RH  088%=      5-min Rain = 0
KMD1 151128Z 23002KT 20/18 A2993 RMK A01 T02030183  RH  088%=      5-min Rain = 0
KMD1 151129Z 24003KT 20/18 A2993 RMK A01 T02030182  RH  088%=      5-min Rain = 0
KMD1 151130Z 23003KT 20/18 A2993 RMK A01 T02030182  RH  088%=      5-min Rain = 0
KMD1 151131Z 23003KT 20/18 A2993 RMK A01 T02030182  RH  088%=      5-min Rain = 0
KMD1 151132Z 22002KT 20/18 A2993 RMK A01 T02030182  RH  088%=      5-min Rain = 0
KMD1 151133Z 21003KT 20/18 A2993 RMK A01 T02030182  RH  088%=      5-min Rain = 0
KMD1 151134Z 22002KT 20/18 A2993 RMK A01 T02030182  RH  088%=      5-min Rain = 0
KMD1 151135Z 22003KT 20/18 A2993 RMK A01 T02030182  RH  088%=      5-min Rain = 0
KMD1 151136Z 22003KT 20/18 A2993 RMK A01 T02030183  RH  088%=      5-min Rain = 0
KMD1 151137Z 21002KT 20/18 A2994 RMK A01 T02030182  RH  088%=      5-min Rain = 0
KMD1 151138Z 22001KT 20/18 A2994 RMK A01 T02030182  RH  088%=      5-min Rain = 0
KMD1 151139Z 21002KT 20/18 A2994 RMK A01 T02030182  RH  088%=      5-min Rain = 0
KMD1 151140Z 20002KT 20/18 A2994 RMK A01 T02030182  RH  088%=      5-min Rain = 0
KMD1 151141Z 21003KT 20/18 A2994 RMK A01 T02020182  RH  088%=      5-min Rain = 0
KMD1 151142Z 19003KT 20/18 A2994 RMK A01 T02020182  RH  088%=      5-min Rain = 0
KMD1 151143Z 19003KT 20/18 A2994 RMK A01 T02020182  RH  088%=      5-min Rain = 0
KMD1 151144Z 19003KT 20/18 A2994 RMK A01 T02020182  RH  088%=      5-min Rain = 0
KMD1 151145Z 20003KT 20/18 A2994 RMK A01 T02020182  RH  088%=      5-min Rain = 0
KMD1 151146Z 19003KT 20/18 A2994 RMK A01 T02010182  RH  089%=      5-min Rain = 0
KMD1 151147Z 20004KT 20/18 A2994 RMK A01 T02010183  RH  089%=      5-min Rain = 0
KMD1 151148Z 19003KT 20/18 A2994 RMK A01 T02010183  RH  089%=      5-min Rain = 0
KMD1 151149Z 20003KT 20/18 A2994 RMK A01 T02010182  RH  089%=      5-min Rain = 0
KMD1 151150Z 20005KT 20/18 A2994 RMK A01 T02010183  RH  089%=      5-min Rain = 0
KMD1 151151Z 19003KT 20/18 A2994 RMK A01 T02020183  RH  089%=      5-min Rain = 0
KMD1 151152Z 19003KT 20/18 A2994 RMK A01 T02020182  RH  089%=      5-min Rain = 0
KMD1 151153Z 17004KT 20/18 A2994 RMK A01 T02020183  RH  089%=      5-min Rain = 0
KMD1 151154Z 18004KT 20/18 A2994 RMK A01 T02020183  RH  089%=      5-min Rain = 0
KMD1 151155Z 19003KT 20/18 A2994 RMK A01 T02020183  RH  089%=      5-min Rain = 0
KMD1 151156Z 17003KT 20/18 A2994 RMK A01 T02020183  RH  089%=      5-min Rain = 0
KMD1 151157Z 19003KT 20/18 A2994 RMK A01 T02020183  RH  089%=      5-min Rain = 0
KMD1 151158Z 17002KT 20/18 A2994 RMK A01 T02010183  RH  089%=      5-min Rain = 0
KMD1 151159Z 17003KT 20/18 A2995 RMK A01 T02010183  RH  089%=      5-min Rain = 0
KMD1 151200Z 18004KT 20/18 A2995 RMK A01 T02010184  RH  090%=      5-min Rain = 0
KMD1 151201Z 20003KT 20/18 A2995 RMK A01 T02000183  RH  090%=      5-min Rain = 0
KMD1 151202Z 20002KT 20/18 A2995 RMK A01 T02000184  RH  090%=      5-min Rain = 0
KMD1 151203Z 21004KT 20/18 A2995 RMK A01 T02000184  RH  090%=      5-min Rain = 0
KMD1 151204Z 21003KT 20/18 A2995 RMK A01 T02000184  RH  090%=      5-min Rain = 0
KMD1 151205Z 20002KT 20/18 A2995 RMK A01 T02000184  RH  090%=      5-min Rain = 0
KMD1 151206Z 21003KT 20/18 A2995 RMK A01 T02000184  RH  090%=      5-min Rain = 0
KMD1 151207Z 20003KT 20/18 A2995 RMK A01 T02000183  RH  090%=      5-min Rain = 0
KMD1 151208Z 20002KT 20/18 A2995 RMK A01 T02000183  RH  090%=      5-min Rain = 0
KMD1 151209Z 21002KT 20/18 A2995 RMK A01 T02000184  RH  090%=      5-min Rain = 0
KMD1 151210Z 19002KT 20/18 A2996 RMK A01 T02010184  RH  090%=      5-min Rain = 0
KMD1 151211Z 21002KT 20/18 A2996 RMK A01 T02000183  RH  090%=      5-min Rain = 0
KMD1 151212Z 20003KT 20/18 A2996 RMK A01 T02000184  RH  090%=      5-min Rain = 0
KMD1 151213Z 19003KT 20/18 A2996 RMK A01 T02000184  RH  090%=      5-min Rain = 0
KMD1 151214Z 21004KT 20/18 A2996 RMK A01 T02000184  RH  090%=      5-min Rain = 0
KMD1 151215Z 19002KT 20/19 A2996 RMK A01 T02010185  RH  091%=      5-min Rain = 0
KMD1 151216Z 21003KT 20/19 A2996 RMK A01 T02010185  RH  090%=      5-min Rain = 0
KMD1 151217Z 21003KT 20/19 A2996 RMK A01 T02020185  RH  090%=      5-min Rain = 0
KMD1 151218Z 21002KT 20/19 A2996 RMK A01 T02020185  RH  090%=      5-min Rain = 0
KMD1 151219Z 20001KT 20/19 A2996 RMK A01 T02020185  RH  090%=      5-min Rain = 0
KMD1 151220Z 23002KT 20/19 A2996 RMK A01 T02030185  RH  090%=      5-min Rain = 0
KMD1 151221Z 22001KT 20/19 A2996 RMK A01 T02030185  RH  090%=      5-min Rain = 0
KMD1 151222Z 22002KT 20/19 A2996 RMK A01 T02030185  RH  090%=      5-min Rain = 0
KMD1 151223Z 22002KT 20/19 A2996 RMK A01 T02030185  RH  090%=      5-min Rain = 0
KMD1 151224Z 21002KT 20/19 A2996 RMK A01 T02030186  RH  090%=      5-min Rain = 0
KMD1 151225Z 21002KT 20/19 A2996 RMK A01 T02030186  RH  090%=      5-min Rain = 0
KMD1 151226Z 21003KT 20/19 A2997 RMK A01 T02030186  RH  090%=      5-min Rain = 0
KMD1 151227Z 22002KT 20/19 A2997 RMK A01 T02040187  RH  090%=      5-min Rain = 0
KMD1 151228Z 22003KT 20/19 A2997 RMK A01 T02030187  RH  090%=      5-min Rain = 0
KMD1 151229Z 21004KT 20/19 A2997 RMK A01 T02040187  RH  090%=      5-min Rain = 0
KMD1 151230Z 20002KT 20/19 A2997 RMK A01 T02040188  RH  090%=      5-min Rain = 0
KMD1 151231Z 21003KT 20/19 A2997 RMK A01 T02040187  RH  090%=      5-min Rain = 0
KMD1 151232Z 21002KT 20/19 A2997 RMK A01 T02040188  RH  090%=      5-min Rain = 0
KMD1 151233Z 19002KT 20/19 A2997 RMK A01 T02040188  RH  090%=      5-min Rain = 0
KMD1 151234Z 21002KT 21/19 A2997 RMK A01 T02050188  RH  090%=      5-min Rain = 0
KMD1 151235Z 20001KT 21/19 A2997 RMK A01 T02050189  RH  090%=      5-min Rain = 0
KMD1 151236Z 19002KT 21/19 A2997 RMK A01 T02050188  RH  090%=      5-min Rain = 0
KMD1 151237Z 18002KT 21/19 A2997 RMK A01 T02060189  RH  090%=      5-min Rain = 0
KMD1 151238Z 19002KT 21/19 A2997 RMK A01 T02060189  RH  090%=      5-min Rain = 0
KMD1 151239Z 20001KT 21/19 A2997 RMK A01 T02070190  RH  090%=      5-min Rain = 0
KMD1 151240Z 20002KT 21/19 A2997 RMK A01 T02070190  RH  090%=      5-min Rain = 0
KMD1 151241Z 21002KT 21/19 A2997 RMK A01 T02080191  RH  090%=      5-min Rain = 0
KMD1 151242Z 20002KT 21/19 A2997 RMK A01 T02080191  RH  090%=      5-min Rain = 0
KMD1 151243Z 20002KT 21/19 A2997 RMK A01 T02090191  RH  090%=      5-min Rain = 0
KMD1 151244Z 21002KT 21/19 A2997 RMK A01 T02090191  RH  089%=      5-min Rain = 0
KMD1 151245Z 21002KT 21/19 A2997 RMK A01 T02100191  RH  089%=      5-min Rain = 0
KMD1 151246Z 20002KT 21/19 A2997 RMK A01 T02100190  RH  089%=      5-min Rain = 0
KMD1 151247Z 21003KT 21/19 A2997 RMK A01 T02100191  RH  089%=      5-min Rain = 0
KMD1 151248Z 20003KT 21/19 A2997 RMK A01 T02110191  RH  089%=      5-min Rain = 0
KMD1 151249Z 21002KT 21/19 A2997 RMK A01 T02110191  RH  088%=      5-min Rain = 0
KMD1 151250Z 20003KT 21/19 A2997 RMK A01 T02110192  RH  088%=      5-min Rain = 0
KMD1 151251Z 21004KT 21/19 A2997 RMK A01 T02120192  RH  088%=      5-min Rain = 0
KMD1 151252Z 21003KT 21/19 A2997 RMK A01 T02130193  RH  089%=      5-min Rain = 0
KMD1 151253Z 21003KT 21/19 A2997 RMK A01 T02130193  RH  088%=      5-min Rain = 0
KMD1 151254Z 21004KT 21/19 A2997 RMK A01 T02140194  RH  088%=      5-min Rain = 0
KMD1 151255Z 21004KT 21/19 A2997 RMK A01 T02140194  RH  088%=      5-min Rain = 0
KMD1 151256Z 22004KT 22/19 A2997 RMK A01 T02150194  RH  088%=      5-min Rain = 0
KMD1 151257Z 21005KT 22/19 A2997 RMK A01 T02150194  RH  087%=      5-min Rain = 0
KMD1 151258Z 21004KT 22/19 A2997 RMK A01 T02160194  RH  087%=      5-min Rain = 0
KMD1 151259Z 21003KT 22/20 A2997 RMK A01 T02170195  RH  088%=      5-min Rain = 0
KMD1 151300Z 22004KT 22/20 A2997 RMK A01 T02170196  RH  087%=      5-min Rain = 0
KMD1 151301Z 21003KT 22/20 A2997 RMK A01 T02180196  RH  087%=      5-min Rain = 0
KMD1 151302Z 20004KT 22/20 A2997 RMK A01 T02190195  RH  087%=      5-min Rain = 0
KMD1 151303Z 21003KT 22/20 A2997 RMK A01 T02190196  RH  087%=      5-min Rain = 0
KMD1 151304Z 21003KT 22/20 A2997 RMK A01 T02200197  RH  087%=      5-min Rain = 0
KMD1 151305Z 21004KT 22/20 A2997 RMK A01 T02200197  RH  087%=      5-min Rain = 0
KMD1 151306Z 20005KT 22/20 A2998 RMK A01 T02210196  RH  086%=      5-min Rain = 0
KMD1 151307Z 22006KT 22/20 A2998 RMK A01 T02210197  RH  086%=      5-min Rain = 0
KMD1 151308Z 21004KT 22/20 A2998 RMK A01 T02210197  RH  086%=      5-min Rain = 0
KMD1 151309Z 22004KT 22/20 A2998 RMK A01 T02220198  RH  086%=      5-min Rain = 0
KMD1 151310Z 19004KT 22/20 A2998 RMK A01 T02230198  RH  086%=      5-min Rain = 0
KMD1 151311Z 19006KT 22/20 A2998 RMK A01 T02230197  RH  085%=      5-min Rain = 0
KMD1 151312Z 19006KT 22/20 A2998 RMK A01 T02230197  RH  085%=      5-min Rain = 0
KMD1 151313Z 20006KT 22/20 A2998 RMK A01 T02230197  RH  085%=      5-min Rain = 0
KMD1 151314Z 20007KT 22/20 A2998 RMK A01 T02230197  RH  085%=      5-min Rain = 0
KMD1 151315Z 19006KT 22/20 A2998 RMK A01 T02230198  RH  085%=      5-min Rain = 0
KMD1 151316Z 19005KT 22/20 A2998 RMK A01 T02240198  RH  085%=      5-min Rain = 0
KMD1 151317Z 19006KT 22/20 A2998 RMK A01 T02240198  RH  085%=      5-min Rain = 0
KMD1 151318Z 19007KT 23/20 A2998 RMK A01 T02250198  RH  085%=      5-min Rain = 0
KMD1 151319Z 20006KT 23/20 A2998 RMK A01 T02250198  RH  085%=      5-min Rain = 0
KMD1 151320Z 20009KT 23/20 A2998 RMK A01 T02250198  RH  085%=      5-min Rain = 0
KMD1 151321Z 20007KT 23/20 A2998 RMK A01 T02250197  RH  084%=      5-min Rain = 0
KMD1 151322Z 19005KT 23/20 A2998 RMK A01 T02250198  RH  085%=      5-min Rain = 0
KMD1 151323Z 20005KT 23/20 A2998 RMK A01 T02260200  RH  085%=      5-min Rain = 0
KMD1 151324Z 20008KT 23/20 A2998 RMK A01 T02270200  RH  085%=      5-min Rain = 0
KMD1 151325Z 21006KT 23/20 A2998 RMK A01 T02270199  RH  084%=      5-min Rain = 0
KMD1 151326Z 21006KT 23/20 A2998 RMK A01 T02270201  RH  085%=      5-min Rain = 0
KMD1 151327Z 19005KT 23/20 A2998 RMK A01 T02280200  RH  084%=      5-min Rain = 0
KMD1 151328Z 19004KT 23/20 A2998 RMK A01 T02290201  RH  085%=      5-min Rain = 0
KMD1 151329Z 20007KT 23/20 A2998 RMK A01 T02290202  RH  084%=      5-min Rain = 0
KMD1 151330Z 20007KT 23/20 A2998 RMK A01 T02290200  RH  083%=      5-min Rain = 0
KMD1 151331Z 20007KT 23/20 A2998 RMK A01 T02290200  RH  084%=      5-min Rain = 0
KMD1 151332Z 20006KT 23/20 A2998 RMK A01 T02290200  RH  083%=      5-min Rain = 0
KMD1 151333Z 21009KT 23/20 A2998 RMK A01 T02290201  RH  084%=      5-min Rain = 0
KMD1 151334Z 20011KT 23/20 A2998 RMK A01 T02300201  RH  084%=      5-min Rain = 0
KMD1 151335Z 21008KT 23/20 A2998 RMK A01 T02300201  RH  083%=      5-min Rain = 0
KMD1 151336Z 21010KT 23/20 A2998 RMK A01 T02300201  RH  084%=      5-min Rain = 0
KMD1 151337Z 21010KT 23/20 A2998 RMK A01 T02310202  RH  084%=      5-min Rain = 0
KMD1 151338Z 20010KT 23/20 A2998 RMK A01 T02310202  RH  084%=      5-min Rain = 0
KMD1 151339Z 20010KT 23/20 A2998 RMK A01 T02310201  RH  083%=      5-min Rain = 0
KMD1 151340Z 20010KT 23/20 A2998 RMK A01 T02310201  RH  083%=      5-min Rain = 0
KMD1 151341Z 20010KT 23/20 A2998 RMK A01 T02310201  RH  083%=      5-min Rain = 0
KMD1 151342Z 21009KT 23/20 A2998 RMK A01 T02320202  RH  083%=      5-min Rain = 0
KMD1 151343Z 22010KT 23/20 A2998 RMK A01 T02320202  RH  083%=      5-min Rain = 0
KMD1 151344Z 21008KT 23/20 A2998 RMK A01 T02330203  RH  083%=      5-min Rain = 0
KMD1 151345Z 21010KT 23/20 A2998 RMK A01 T02330201  RH  082%=      5-min Rain = 0
KMD1 151346Z 21006KT 23/20 A2998 RMK A01 T02330202  RH  083%=      5-min Rain = 0
KMD1 151347Z 20007KT 23/21 A2998 RMK A01 T02340205  RH  084%=      5-min Rain = 0
KMD1 151348Z 20008KT 24/20 A2998 RMK A01 T02350204  RH  083%=      5-min Rain = 0
KMD1 151349Z 20010KT 24/20 A2998 RMK A01 T02350202  RH  082%=      5-min Rain = 0
KMD1 151350Z 19010KT 24/20 A2998 RMK A01 T02350203  RH  082%=      5-min Rain = 0
KMD1 151351Z 20011KT 23/20 A2998 RMK A01 T02340202  RH  082%=      5-min Rain = 0
KMD1 151352Z 21008KT 23/20 A2998 RMK A01 T02340203  RH  082%=      5-min Rain = 0
KMD1 151353Z 21012KT 24/20 A2999 RMK A01 T02350203  RH  082%=      5-min Rain = 0
KMD1 151354Z 22009KT 24/20 A2999 RMK A01 T02350202  RH  082%=      5-min Rain = 0
KMD1 151355Z 21009G14KT 24/20 A2999 RMK A01 T02350203  RH  082%=      5-min Rain = 0
KMD1 151356Z 20011KT 24/20 A2999 RMK A01 T02350202  RH  082%=      5-min Rain = 0
KMD1 151357Z 20010KT 23/20 A2999 RMK A01 T02340203  RH  083%=      5-min Rain = 0
KMD1 151358Z 20011KT 23/20 A2999 RMK A01 T02340202  RH  082%=      5-min Rain = 0
KMD1 151359Z 20012KT 23/20 A2999 RMK A01 T02340202  RH  082%=      5-min Rain = 0
KMD1 151400Z 20012KT 23/20 A2999 RMK A01 T02340202  RH  082%=      5-min Rain = 0
KMD1 151401Z 20010KT 23/20 A2999 RMK A01 T02340202  RH  082%=      5-min Rain = 0
KMD1 151402Z 20010KT 23/20 A2999 RMK A01 T02340203  RH  083%=      5-min Rain = 0
KMD1 151403Z 21008KT 24/20 A2999 RMK A01 T02350203  RH  082%=      5-min Rain = 0
KMD1 151404Z 21007KT 24/20 A2999 RMK A01 T02350203  RH  082%=      5-min Rain = 0
KMD1 151405Z 21006KT 24/20 A2999 RMK A01 T02350204  RH  082%=      5-min Rain = 0
KMD1 151406Z 19009KT 24/20 A2999 RMK A01 T02360204  RH  082%=      5-min Rain = 0
KMD1 151407Z 20009KT 24/20 A2999 RMK A01 T02370203  RH  082%=      5-min Rain = 0
KMD1 151408Z 21011KT 24/20 A2999 RMK A01 T02370203  RH  081%=      5-min Rain = 0
KMD1 151409Z 21010KT 24/20 A2999 RMK A01 T02370202  RH  081%=      5-min Rain = 0
KMD1 151410Z 21009KT 24/20 A2999 RMK A01 T02370203  RH  081%=      5-min Rain = 0
KMD1 151411Z 22010KT 24/20 A2999 RMK A01 T02370204  RH  082%=      5-min Rain = 0
KMD1 151412Z 21010KT 24/20 A2999 RMK A01 T02370203  RH  081%=      5-min Rain = 0
KMD1 151413Z 21009KT 24/20 A2999 RMK A01 T02370203  RH  081%=      5-min Rain = 0
KMD1 151414Z 21007KT 24/21 A2999 RMK A01 T02370205  RH  082%=      5-min Rain = 0
KMD1 151415Z 20007KT 24/21 A2999 RMK A01 T02380205  RH  081%=      5-min Rain = 0
KMD1 151416Z 19007KT 24/21 A2999 RMK A01 T02390205  RH  081%=      5-min Rain = 0
KMD1 151417Z 20009KT 24/21 A2999 RMK A01 T02400205  RH  081%=      5-min Rain = 0
KMD1 151418Z 19008KT 24/21 A2999 RMK A01 T02400205  RH  081%=      5-min Rain = 0
KMD1 151419Z 20007KT 24/21 A2999 RMK A01 T02400205  RH  081%=      5-min Rain = 0
KMD1 151420Z 19007KT 24/21 A2999 RMK A01 T02400205  RH  081%=      5-min Rain = 0
KMD1 151421Z 19007KT 24/21 A2999 RMK A01 T02400205  RH  081%=      5-min Rain = 0
KMD1 151422Z 21006KT 24/21 A2999 RMK A01 T02410206  RH  081%=      5-min Rain = 0
KMD1 151423Z 20005KT 24/21 A2999 RMK A01 T02430209  RH  081%=      5-min Rain = 0
KMD1 151424Z 21006KT 25/21 A2999 RMK A01 T02450210  RH  081%=      5-min Rain = 0
KMD1 151425Z 21009KT 25/21 A2999 RMK A01 T02460209  RH  080%=      5-min Rain = 0
KMD1 151426Z 21009KT 25/21 A2999 RMK A01 T02460206  RH  078%=      5-min Rain = 0
KMD1 151427Z 21009KT 25/21 A2999 RMK A01 T02450207  RH  079%=      5-min Rain = 0
KMD1 151428Z 21008KT 24/21 A2999 RMK A01 T02440207  RH  080%=      5-min Rain = 0
KMD1 151429Z 21009KT 24/21 A2999 RMK A01 T02440207  RH  080%=      5-min Rain = 0
KMD1 151430Z 21007KT 24/21 A2999 RMK A01 T02440207  RH  080%=      5-min Rain = 0
KMD1 151431Z 21006KT 24/21 A2999 RMK A01 T02440207  RH  080%=      5-min Rain = 0
KMD1 151432Z 22008KT 24/21 A2999 RMK A01 T02440206  RH  079%=      5-min Rain = 0
KMD1 151433Z 23009KT 24/21 A2999 RMK A01 T02440207  RH  079%=      5-min Rain = 0
KMD1 151434Z 22006KT 25/21 A2999 RMK A01 T02450208  RH  080%=      5-min Rain = 0
KMD1 151435Z 21006KT 25/21 A2999 RMK A01 T02460212  RH  081%=      5-min Rain = 0
KMD1 151436Z 22007G12KT 25/21 A2999 RMK A01 T02470210  RH  080%=      5-min Rain = 0
KMD1 151437Z 22008KT 25/21 A2999 RMK A01 T02470209  RH  079%=      5-min Rain = 0
KMD1 151438Z 21010KT 25/21 A2999 RMK A01 T02470208  RH  079%=      5-min Rain = 0
KMD1 151439Z 21008KT 25/21 A2999 RMK A01 T02460207  RH  078%=      5-min Rain = 0
KMD1 151440Z 22010KT 25/21 A2999 RMK A01 T02460206  RH  078%=      5-min Rain = 0
KMD1 151441Z 21008KT 25/21 A2999 RMK A01 T02460208  RH  080%=      5-min Rain = 0
KMD1 151442Z 21009KT 25/21 A2999 RMK A01 T02470208  RH  079%=      5-min Rain = 0
KMD1 151443Z 21007KT 25/21 A2999 RMK A01 T02480208  RH  078%=      5-min Rain = 0
KMD1 151444Z 22008KT 25/21 A2999 RMK A01 T02490209  RH  078%=      5-min Rain = 0
KMD1 151445Z 22009KT 25/21 A2999 RMK A01 T02500207  RH  077%=      5-min Rain = 0
KMD1 151446Z 23009KT 25/21 A2999 RMK A01 T02490208  RH  078%=      5-min Rain = 0
KMD1 151447Z 22010KT 25/21 A2999 RMK A01 T02490208  RH  078%=      5-min Rain = 0
KMD1 151448Z 24010KT 25/21 A2999 RMK A01 T02480208  RH  078%=      5-min Rain = 0
KMD1 151449Z 24009KT 25/21 A2999 RMK A01 T02490209  RH  079%=      5-min Rain = 0
KMD1 151450Z 22008KT 25/21 A2999 RMK A01 T02490208  RH  078%=      5-min Rain = 0
KMD1 151451Z 22007KT 25/21 A2999 RMK A01 T02500208  RH  077%=      5-min Rain = 0
KMD1 151452Z 21004KT 25/21 A2999 RMK A01 T02510212  RH  079%=      5-min Rain = 0
KMD1 151453Z 21008KT 25/21 A2999 RMK A01 T02540213  RH  078%=      5-min Rain = 0
KMD1 151454Z 20010KT 26/21 A2999 RMK A01 T02560211  RH  076%=      5-min Rain = 0
KMD1 151455Z 20011KT 26/21 A2999 RMK A01 T02570208  RH  075%=      5-min Rain = 0
KMD1 151456Z 20009KT 26/21 A2999 RMK A01 T02550208  RH  076%=      5-min Rain = 0
KMD1 151457Z 20009KT 25/21 A2999 RMK A01 T02530209  RH  076%=      5-min Rain = 0
KMD1 151458Z 20011KT 25/21 A2999 RMK A01 T02530209  RH  077%=      5-min Rain = 0
KMD1 151459Z 20009KT 25/21 A2999 RMK A01 T02530207  RH  076%=      5-min Rain = 0
KMD1 151500Z 20009KT 25/21 A2999 RMK A01 T02520208  RH  076%=      5-min Rain = 0
KMD1 151501Z 20010G15KT 25/21 A2999 RMK A01 T02520207  RH  076%=      5-min Rain = 0
KMD1 151502Z 21008KT 25/21 A2999 RMK A01 T02510209  RH  077%=      5-min Rain = 0
KMD1 151503Z 21007KT 25/21 A2999 RMK A01 T02520208  RH  077%=      5-min Rain = 0
KMD1 151504Z 22007KT 25/21 A2999 RMK A01 T02520209  RH  077%=      5-min Rain = 0
KMD1 151505Z 22010KT 25/21 A2999 RMK A01 T02530207  RH  076%=      5-min Rain = 0
KMD1 151506Z 21007KT 25/21 A2999 RMK A01 T02530209  RH  077%=      5-min Rain = 0
KMD1 151507Z 19008KT 26/21 A2999 RMK A01 T02550210  RH  076%=      5-min Rain = 0
KMD1 151508Z 20009KT 26/21 A2999 RMK A01 T02560207  RH  075%=      5-min Rain = 0
KMD1 151509Z 20009KT 26/21 A2999 RMK A01 T02560208  RH  075%=      5-min Rain = 0
KMD1 151510Z 20008KT 26/21 A2999 RMK A01 T02560208  RH  075%=      5-min Rain = 0
KMD1 151511Z 20009KT 26/21 A2999 RMK A01 T02560209  RH  075%=      5-min Rain = 0
KMD1 151512Z 20008KT 26/21 A2999 RMK A01 T02570209  RH  075%=      5-min Rain = 0
KMD1 151513Z 20008KT 26/21 A2999 RMK A01 T02570209  RH  075%=      5-min Rain = 0
KMD1 151514Z 20009KT 26/21 A2999 RMK A01 T02580207  RH  073%=      5-min Rain = 0
KMD1 151515Z 20012KT 26/21 A2999 RMK A01 T02580206  RH  073%=      5-min Rain = 0
KMD1 151516Z 20009KT 26/21 A2999 RMK A01 T02580208  RH  074%=      5-min Rain = 0
KMD1 151517Z 20008KT 26/21 A2999 RMK A01 T02580206  RH  073%=      5-min Rain = 0
KMD1 151518Z 20008KT 26/21 A2999 RMK A01 T02580209  RH  074%=      5-min Rain = 0
KMD1 151519Z 20007KT 26/21 A2999 RMK A01 T02580207  RH  073%=      5-min Rain = 0
KMD1 151520Z 19008KT 26/21 A2999 RMK A01 T02590208  RH  073%=      5-min Rain = 0
KMD1 151521Z 18007KT 26/21 A2999 RMK A01 T02600207  RH  072%=      5-min Rain = 0
KMD1 151522Z 20010KT 26/21 A2999 RMK A01 T02610209  RH  073%=      5-min Rain = 0
KMD1 151523Z 20009KT 26/21 A2999 RMK A01 T02620209  RH  073%=      5-min Rain = 0
KMD1 151524Z 20008KT 26/21 A2999 RMK A01 T02620211  RH  074%=      5-min Rain = 0
KMD1 151525Z 20009KT 26/21 A2999 RMK A01 T02620207  RH  071%=      5-min Rain = 0
KMD1 151526Z 19008KT 26/21 A2999 RMK A01 T02620208  RH  072%=      5-min Rain = 0
KMD1 151527Z 19008KT 26/21 A2999 RMK A01 T02610207  RH  072%=      5-min Rain = 0
KMD1 151528Z 20008KT 26/21 A2999 RMK A01 T02610207  RH  072%=      5-min Rain = 0
KMD1 151529Z 20008KT 26/21 A2999 RMK A01 T02620207  RH  072%=      5-min Rain = 0
KMD1 151530Z 20008KT 26/21 A2999 RMK A01 T02620206  RH  072%=      5-min Rain = 0
KMD1 151531Z 20007KT 26/21 A2999 RMK A01 T02620207  RH  072%=      5-min Rain = 0
KMD1 151532Z 19009KT 26/21 A2999 RMK A01 T02630207  RH  071%=      5-min Rain = 0
KMD1 151533Z 19007KT 26/20 A2999 RMK A01 T02630204  RH  070%=      5-min Rain = 0
KMD1 151534Z 20005KT 26/20 A2999 RMK A01 T02620204  RH  071%=      5-min Rain = 0
KMD1 151535Z 23007KT 26/21 A2999 RMK A01 T02610207  RH  072%=      5-min Rain = 0
KMD1 151536Z 21005KT 26/21 A2999 RMK A01 T02610209  RH  073%=      5-min Rain = 0
KMD1 151537Z 21005KT 26/21 A2999 RMK A01 T02630208  RH  072%=      5-min Rain = 0
KMD1 151538Z 20006KT 26/21 A2999 RMK A01 T02630207  RH  071%=      5-min Rain = 0
KMD1 151539Z 21006KT 26/21 A2999 RMK A01 T02640211  RH  073%=      5-min Rain = 0
KMD1 151540Z 18005KT 27/21 A2999 RMK A01 T02660212  RH  072%=      5-min Rain = 0
KMD1 151541Z 16006KT 27/21 A2999 RMK A01 T02690213  RH  071%=      5-min Rain = 0
KMD1 151542Z 15006KT 27/21 A2999 RMK A01 T02700211  RH  070%=      5-min Rain = 0
KMD1 151543Z 16005KT 27/21 A2999 RMK A01 T02710208  RH  069%=      5-min Rain = 0
KMD1 151544Z 14007KT 27/21 A2999 RMK A01 T02700209  RH  069%=      5-min Rain = 0
KMD1 151545Z 17007KT 27/21 A2999 RMK A01 T02690210  RH  070%=      5-min Rain = 0
KMD1 151546Z 16006KT 27/21 A2999 RMK A01 T02700211  RH  070%=      5-min Rain = 0
KMD1 151547Z 16007KT 27/21 A2999 RMK A01 T02710212  RH  070%=      5-min Rain = 0
KMD1 151548Z 17008KT 27/21 A2999 RMK A01 T02740211  RH  069%=      5-min Rain = 0
KMD1 151549Z 19008KT 27/21 A2999 RMK A01 T02740213  RH  069%=      5-min Rain = 0
KMD1 151550Z 19008KT 27/21 A2999 RMK A01 T02740214  RH  070%=      5-min Rain = 0
KMD1 151551Z 20009KT 28/21 A2999 RMK A01 T02760212  RH  068%=      5-min Rain = 0
KMD1 151552Z 20009KT 28/21 A2999 RMK A01 T02750210  RH  068%=      5-min Rain = 0
KMD1 151553Z 18007KT 27/21 A2999 RMK A01 T02730211  RH  069%=      5-min Rain = 0
KMD1 151554Z 19009KT 27/21 A2999 RMK A01 T02720211  RH  069%=      5-min Rain = 0
KMD1 151555Z 19009KT 27/21 A2999 RMK A01 T02720209  RH  068%=      5-min Rain = 0
KMD1 151556Z 20008KT 27/21 A2999 RMK A01 T02720210  RH  069%=      5-min Rain = 0
KMD1 151557Z 20008KT 27/21 A2999 RMK A01 T02720211  RH  069%=      5-min Rain = 0
KMD1 151558Z 19011KT 27/21 A2999 RMK A01 T02720210  RH  069%=      5-min Rain = 0
KMD1 151559Z 19009KT 27/21 A2999 RMK A01 T02720211  RH  069%=      5-min Rain = 0
KMD1 151600Z 19007KT 27/21 A2999 RMK A01 T02730208  RH  068%=      5-min Rain = 0
KMD1 151601Z 17009KT 27/21 A2999 RMK A01 T02730210  RH  068%=      5-min Rain = 0
KMD1 151602Z 17008KT 27/21 A2999 RMK A01 T02730207  RH  067%=      5-min Rain = 0
KMD1 151603Z 18007KT 27/21 A2999 RMK A01 T02730209  RH  068%=      5-min Rain = 0
KMD1 151604Z 16011KT 28/21 A2998 RMK A01 T02750209  RH  067%=      5-min Rain = 0
KMD1 151605Z 16011KT 28/21 A2998 RMK A01 T02760211  RH  068%=      5-min Rain = 0
KMD1 151606Z 18008KT 28/21 A2998 RMK A01 T02790213  RH  068%=      5-min Rain = 0
KMD1 151607Z 17011KT 28/21 A2998 RMK A01 T02800210  RH  066%=      5-min Rain = 0
KMD1 151608Z 16011KT 28/21 A2998 RMK A01 T02790212  RH  067%=      5-min Rain = 0
KMD1 151609Z 16011KT 28/21 A2998 RMK A01 T02800211  RH  066%=      5-min Rain = 0
KMD1 151610Z 16010KT 28/21 A2998 RMK A01 T02800214  RH  067%=      5-min Rain = 0
KMD1 151611Z 17010KT 28/21 A2998 RMK A01 T02820212  RH  066%=      5-min Rain = 0
KMD1 151612Z 15009KT 28/21 A2998 RMK A01 T02820209  RH  065%=      5-min Rain = 0
KMD1 151613Z 16008KT 28/21 A2998 RMK A01 T02800212  RH  066%=      5-min Rain = 0
KMD1 151614Z 15007KT 28/21 A2999 RMK A01 T02800212  RH  066%=      5-min Rain = 0
KMD1 151615Z 15006KT 28/21 A2999 RMK A01 T02820214  RH  067%=      5-min Rain = 0
KMD1 151616Z 17012KT 29/21 A2998 RMK A01 T02850214  RH  066%=      5-min Rain = 0
KMD1 151617Z 16010KT 29/21 A2999 RMK A01 T02850212  RH  065%=      5-min Rain = 0
KMD1 151618Z 16007KT 29/21 A2999 RMK A01 T02850213  RH  065%=      5-min Rain = 0
KMD1 151619Z 15008KT 28/21 A2999 RMK A01 T02840212  RH  065%=      5-min Rain = 0
KMD1 151620Z 16007KT 29/22 A2999 RMK A01 T02850217  RH  067%=      5-min Rain = 0
KMD1 151621Z 15009KT 29/21 A2999 RMK A01 T02860214  RH  065%=      5-min Rain = 0
KMD1 151622Z 14008KT 29/21 A2999 RMK A01 T02860213  RH  065%=      5-min Rain = 0
KMD1 151623Z 15009KT 29/21 A2999 RMK A01 T02860214  RH  065%=      5-min Rain = 0
KMD1 151624Z 17008KT 29/21 A2999 RMK A01 T02860213  RH  065%=      5-min Rain = 0
KMD1 151625Z 17007KT 29/21 A2999 RMK A01 T02850212  RH  065%=      5-min Rain = 0
KMD1 151626Z 16011KT 29/21 A2999 RMK A01 T02850214  RH  066%=      5-min Rain = 0
KMD1 151627Z 19007G12KT 29/21 A2999 RMK A01 T02850211  RH  064%=      5-min Rain = 0
KMD1 151628Z 20004KT 29/21 A2999 RMK A01 T02850212  RH  065%=      5-min Rain = 0
KMD1 151629Z 20005KT 29/22 A2999 RMK A01 T02850216  RH  067%=      5-min Rain = 0
KMD1 151630Z 18007KT 29/22 A2999 RMK A01 T02850217  RH  067%=      5-min Rain = 0
KMD1 151631Z 17009KT 29/22 A2999 RMK A01 T02870216  RH  066%=      5-min Rain = 0
KMD1 151632Z 19007KT 29/22 A2999 RMK A01 T02900215  RH  064%=      5-min Rain = 0
KMD1 151633Z 21007KT 29/22 A2999 RMK A01 T02900216  RH  064%=      5-min Rain = 0
KMD1 151634Z 19007KT 29/21 A2999 RMK A01 T02890214  RH  064%=      5-min Rain = 0
KMD1 151635Z 17006KT 29/21 A2999 RMK A01 T02860214  RH  065%=      5-min Rain = 0
KMD1 151636Z 18007KT 29/21 A2999 RMK A01 T02850214  RH  065%=      5-min Rain = 0
KMD1 151637Z 18008KT 28/22 A2999 RMK A01 T02840215  RH  066%=      5-min Rain = 0
KMD1 151638Z 18010KT 29/21 A2999 RMK A01 T02860211  RH  064%=      5-min Rain = 0
KMD1 151639Z 17008KT 29/21 A2999 RMK A01 T02860210  RH  064%=      5-min Rain = 0
KMD1 151640Z 17007KT 29/22 A2999 RMK A01 T02870215  RH  065%=      5-min Rain = 0
KMD1 151641Z 17007KT 29/21 A2999 RMK A01 T02880209  RH  062%=      5-min Rain = 0
KMD1 151642Z 19006KT 29/21 A2999 RMK A01 T02880212  RH  064%=      5-min Rain = 0
KMD1 151643Z 20007KT 29/21 A2999 RMK A01 T02880213  RH  064%=      5-min Rain = 0
KMD1 151644Z 21005KT 29/21 A2999 RMK A01 T02870207  RH  062%=      5-min Rain = 0
KMD1 151645Z 13004KT 29/21 A2999 RMK A01 T02850211  RH  064%=      5-min Rain = 0
KMD1 151646Z 16002KT 29/21 A2999 RMK A01 T02860207  RH  062%=      5-min Rain = 0
KMD1 151647Z 17002KT 29/21 A2999 RMK A01 T02870213  RH  064%=      5-min Rain = 0
KMD1 151648Z 19005KT 29/21 A2999 RMK A01 T02890213  RH  063%=      5-min Rain = 0
KMD1 151649Z 14008KT 29/22 A2999 RMK A01 T02920216  RH  064%=      5-min Rain = 0
KMD1 151650Z 15008KT 29/21 A2999 RMK A01 T02930209  RH  061%=      5-min Rain = 0
KMD1 151651Z 13011KT 29/21 A2999 RMK A01 T02910213  RH  063%=      5-min Rain = 0
KMD1 151652Z 15011KT 29/21 A2999 RMK A01 T02890214  RH  064%=      5-min Rain = 0
KMD1 151653Z 15009KT 29/22 A2999 RMK A01 T02880216  RH  065%=      5-min Rain = 0
KMD1 151654Z 15007KT 29/21 A2999 RMK A01 T02880212  RH  064%=      5-min Rain = 0
KMD1 151655Z 14010KT 29/21 A2999 RMK A01 T02880210  RH  063%=      5-min Rain = 0
KMD1 151656Z 14012G17KT 29/21 A2999 RMK A01 T02880210  RH  063%=      5-min Rain = 0
KMD1 151657Z 16011KT 29/21 A2999 RMK A01 T02900213  RH  063%=      5-min Rain = 0
KMD1 151658Z 18008KT 29/21 A2999 RMK A01 T02920211  RH  062%=      5-min Rain = 0
KMD1 151659Z 20006KT 29/21 A2999 RMK A01 T02930213  RH  062%=      5-min Rain = 0
KMD1 151700Z 20008KT 29/21 A2999 RMK A01 T02940209  RH  060%=      5-min Rain = 0
KMD1 151701Z 16006KT 29/21 A2999 RMK A01 T02930213  RH  062%=      5-min Rain = 0
KMD1 151702Z 13007KT 29/21 A2999 RMK A01 T02940210  RH  061%=      5-min Rain = 0
KMD1 151703Z 14007KT 29/21 A2999 RMK A01 T02930209  RH  061%=      5-min Rain = 0
KMD1 151704Z 14007KT 29/21 A2999 RMK A01 T02920213  RH  063%=      5-min Rain = 0
KMD1 151705Z 12007KT 29/21 A2999 RMK A01 T02920213  RH  063%=      5-min Rain = 0
KMD1 151706Z 13007KT 29/21 A2999 RMK A01 T02940211  RH  061%=      5-min Rain = 0
KMD1 151707Z 15008KT 29/21 A2999 RMK A01 T02940210  RH  061%=      5-min Rain = 0
KMD1 151708Z 17006KT 30/21 A2999 RMK A01 T02950211  RH  061%=      5-min Rain = 0
KMD1 151709Z 17007KT 30/21 A2999 RMK A01 T02950210  RH  060%=      5-min Rain = 0
KMD1 151710Z 15007KT 29/21 A2999 RMK A01 T02940213  RH  062%=      5-min Rain = 0
KMD1 151711Z 16010KT 29/21 A2999 RMK A01 T02940214  RH  062%=      5-min Rain = 0
KMD1 151712Z 16007KT 30/21 A2999 RMK A01 T02950212  RH  061%=      5-min Rain = 0
KMD1 151713Z 13004KT 29/21 A30 RMK A01 T02940213  RH  062%=      5-min Rain = 0
KMD1 151714Z 17008KT 30/21 A30 RMK A01 T02950213  RH  061%=      5-min Rain = 0
KMD1 151715Z 16006KT 30/21 A2999 RMK A01 T02950211  RH  061%=      5-min Rain = 0
KMD1 151716Z 13008KT 30/21 A30 RMK A01 T02960214  RH  061%=      5-min Rain = 0
KMD1 151717Z 14011KT 30/22 A2999 RMK A01 T02970218  RH  062%=      5-min Rain = 0
KMD1 151718Z 15010KT 30/21 A2999 RMK A01 T03020213  RH  059%=      5-min Rain = 0
KMD1 151719Z 15007KT 30/21 A30 RMK A01 T03010210  RH  058%=      5-min Rain = 0
KMD1 151720Z 14008KT 30/21 A30 RMK A01 T02980209  RH  059%=      5-min Rain = 0
KMD1 151721Z 13008KT 29/21 A30 RMK A01 T02940211  RH  061%=      5-min Rain = 0
KMD1 151722Z 16007KT 29/21 A30 RMK A01 T02910212  RH  062%=      5-min Rain = 0
KMD1 151723Z 15006KT 29/21 A30 RMK A01 T02890207  RH  061%=      5-min Rain = 0
KMD1 151724Z 16008KT 29/21 A30 RMK A01 T02870205  RH  061%=      5-min Rain = 0
KMD1 151725Z 16009KT 29/21 A30 RMK A01 T02860207  RH  062%=      5-min Rain = 0
KMD1 151726Z 16009KT 29/21 A30 RMK A01 T02870210  RH  063%=      5-min Rain = 0
KMD1 151727Z 17007KT 29/21 A30 RMK A01 T02910208  RH  061%=      5-min Rain = 0
KMD1 151728Z 16004KT 29/21 A2999 RMK A01 T02920205  RH  059%=      5-min Rain = 0
KMD1 151729Z 15004KT 29/20 A2999 RMK A01 T02920203  RH  058%=      5-min Rain = 0
KMD1 151730Z 17005G11KT 29/21 A2999 RMK A01 T02930210  RH  061%=      5-min Rain = 0
KMD1 151731Z 14012KT 30/21 A2999 RMK A01 T02950214  RH  062%=      5-min Rain = 0
KMD1 151732Z 14011KT 30/21 A2999 RMK A01 T02970211  RH  060%=      5-min Rain = 0
KMD1 151733Z 15010KT 30/21 A2999 RMK A01 T02980212  RH  060%=      5-min Rain = 0
KMD1 151734Z 15008KT 30/21 A2999 RMK A01 T02970208  RH  059%=      5-min Rain = 0
KMD1 151735Z 14006KT 29/21 A2999 RMK A01 T02940209  RH  060%=      5-min Rain = 0
KMD1 151736Z 13006KT 29/21 A2999 RMK A01 T02920207  RH  060%=      5-min Rain = 0
KMD1 151737Z 13007KT 29/21 A2999 RMK A01 T02910207  RH  061%=      5-min Rain = 0
KMD1 151738Z 14008KT 29/21 A2999 RMK A01 T02910213  RH  063%=      5-min Rain = 0
KMD1 151739Z 14009KT 30/21 A2999 RMK A01 T02950211  RH  061%=      5-min Rain = 0
KMD1 151740Z 13008KT 30/21 A2999 RMK A01 T02980211  RH  060%=      5-min Rain = 0
KMD1 151741Z 14008KT 30/21 A2999 RMK A01 T02980209  RH  059%=      5-min Rain = 0
KMD1 151742Z 14008G13KT 30/21 A2999 RMK A01 T02970212  RH  060%=      5-min Rain = 0
KMD1 151743Z 14009KT 30/22 A2999 RMK A01 T02990219  RH  062%=      5-min Rain = 0
KMD1 151744Z 15010KT 30/21 A2999 RMK A01 T03030214  RH  059%=      5-min Rain = 0
KMD1 151745Z 14008KT 30/21 A2999 RMK A01 T03030209  RH  057%=      5-min Rain = 0
KMD1 151746Z 15007KT 30/21 A2999 RMK A01 T03010214  RH  060%=      5-min Rain = 0
KMD1 151747Z 14009KT 30/21 A2999 RMK A01 T03020213  RH  059%=      5-min Rain = 0
KMD1 151748Z 15008KT 30/22 A2999 RMK A01 T03020215  RH  060%=      5-min Rain = 0
KMD1 151749Z 16009KT 30/21 A2999 RMK A01 T03000214  RH  060%=      5-min Rain = 0
KMD1 151750Z 16011KT 30/21 A2999 RMK A01 T02990212  RH  060%=      5-min Rain = 0
KMD1 151751Z 16010KT 30/21 A2999 RMK A01 T02960207  RH  059%=      5-min Rain = 0
KMD1 151752Z 16009KT 29/21 A2999 RMK A01 T02940210  RH  061%=      5-min Rain = 0
KMD1 151753Z 17010KT 30/21 A2999 RMK A01 T02960210  RH  060%=      5-min Rain = 0
KMD1 151754Z 17008KT 30/21 A2999 RMK A01 T02980207  RH  058%=      5-min Rain = 0
KMD1 151755Z 19008KT 30/21 A2998 RMK A01 T02980209  RH  059%=      5-min Rain = 0
KMD1 151756Z 19011KT 30/21 A2998 RMK A01 T02980211  RH  060%=      5-min Rain = 0
KMD1 151757Z 17007KT 30/21 A2998 RMK A01 T02980212  RH  060%=      5-min Rain = 0
KMD1 151758Z 15008KT 30/22 A2998 RMK A01 T03000215  RH  060%=      5-min Rain = 0
KMD1 151759Z 15010KT 30/21 A2998 RMK A01 T03030211  RH  058%=      5-min Rain = 0
KMD1 151800Z 14009KT 30/21 A2998 RMK A01 T03030211  RH  058%=      5-min Rain = 0
KMD1 151801Z 14005KT 30/21 A2998 RMK A01 T03010208  RH  058%=      5-min Rain = 0
KMD1 151802Z 15006KT 30/21 A2998 RMK A01 T02990211  RH  059%=      5-min Rain = 0
KMD1 151803Z 15006KT 30/21 A2998 RMK A01 T03000213  RH  060%=      5-min Rain = 0
KMD1 151804Z 16009KT 30/21 A2998 RMK A01 T03010210  RH  058%=      5-min Rain = 0
KMD1 151805Z 16008KT 30/21 A2998 RMK A01 T03020209  RH  058%=      5-min Rain = 0
KMD1 151806Z 18009KT 30/21 A2998 RMK A01 T03020207  RH  057%=      5-min Rain = 0
KMD1 151807Z 17008KT 30/21 A2998 RMK A01 T03010209  RH  058%=      5-min Rain = 0
KMD1 151808Z 15007KT 30/21 A2998 RMK A01 T03020212  RH  059%=      5-min Rain = 0
KMD1 151809Z 16010KT 31/21 A2998 RMK A01 T03050211  RH  057%=      5-min Rain = 0
KMD1 151810Z 16009KT 31/21 A2998 RMK A01 T03060206  RH  055%=      5-min Rain = 0
KMD1 151811Z 14005KT 30/20 A2998 RMK A01 T03040204  RH  055%=      5-min Rain = 0
KMD1 151812Z 14004KT 30/21 A2998 RMK A01 T03020205  RH  056%=      5-min Rain = 0
KMD1 151813Z 14007KT 30/21 A2998 RMK A01 T03020208  RH  057%=      5-min Rain = 0
KMD1 151814Z 14008KT 30/21 A2998 RMK A01 T03030207  RH  056%=      5-min Rain = 0
KMD1 151815Z 14007KT 30/21 A2998 RMK A01 T03030210  RH  058%=      5-min Rain = 0
KMD1 151816Z 14010KT 31/21 A2998 RMK A01 T03050211  RH  057%=      5-min Rain = 0
KMD1 151817Z 14010KT 31/21 A2998 RMK A01 T03060207  RH  056%=      5-min Rain = 0
KMD1 151818Z 15009KT 31/21 A2998 RMK A01 T03070210  RH  056%=      5-min Rain = 0
KMD1 151819Z 14011KT 31/21 A2998 RMK A01 T03090208  RH  055%=      5-min Rain = 0
KMD1 151820Z 12009KT 31/21 A2998 RMK A01 T03090206  RH  054%=      5-min Rain = 0
KMD1 151821Z 12011G19KT 31/21 A2998 RMK A01 T03090206  RH  054%=      5-min Rain = 0
KMD1 151822Z 20008G19KT 31/21 A2997 RMK A01 T03100208  RH  055%=      5-min Rain = 0
KMD1 151823Z 19007KT 31/21 A2998 RMK A01 T03110213  RH  056%=      5-min Rain = 0
KMD1 151824Z 15006KT 31/21 A2998 RMK A01 T03120212  RH  055%=      5-min Rain = 0
KMD1 151825Z 14005KT 31/21 A2998 RMK A01 T03130207  RH  053%=      5-min Rain = 0
KMD1 151826Z 15006KT 31/21 A2997 RMK A01 T03130205  RH  053%=      5-min Rain = 0
KMD1 151827Z 17003KT 31/20 A2998 RMK A01 T03100204  RH  053%=      5-min Rain = 0
KMD1 151828Z 15006KT 31/21 A2997 RMK A01 T03090208  RH  055%=      5-min Rain = 0
KMD1 151829Z 15010KT 31/20 A2997 RMK A01 T03090203  RH  053%=      5-min Rain = 0
KMD1 151830Z 15010KT 31/20 A2997 RMK A01 T03070203  RH  054%=      5-min Rain = 0
KMD1 151831Z 15007KT 31/20 A2998 RMK A01 T03060204  RH  054%=      5-min Rain = 0
KMD1 151832Z 16008KT 31/20 A2997 RMK A01 T03050201  RH  054%=      5-min Rain = 0
KMD1 151833Z 16011KT 30/20 A2997 RMK A01 T03020203  RH  055%=      5-min Rain = 0
KMD1 151834Z 16008KT 30/21 A2998 RMK A01 T03020205  RH  056%=      5-min Rain = 0
KMD1 151835Z 15009KT 30/20 A2997 RMK A01 T03020201  RH  055%=      5-min Rain = 0
KMD1 151836Z 13006KT 30/20 A2997 RMK A01 T03030202  RH  055%=      5-min Rain = 0
KMD1 151837Z 13005KT 30/20 A2997 RMK A01 T03030200  RH  054%=      5-min Rain = 0
KMD1 151838Z 12007KT 30/20 A2997 RMK A01 T03040201  RH  054%=      5-min Rain = 0
KMD1 151839Z 12007KT 31/20 A2997 RMK A01 T03050201  RH  054%=      5-min Rain = 0
KMD1 151840Z 13006KT 31/20 A2997 RMK A01 T03060203  RH  054%=      5-min Rain = 0
KMD1 151841Z 17009G18KT 31/20 A2997 RMK A01 T03080204  RH  054%=      5-min Rain = 0
KMD1 151842Z 18009KT 31/20 A2997 RMK A01 T03110201  RH  052%=      5-min Rain = 0
KMD1 151843Z 18006KT 31/20 A2997 RMK A01 T03120201  RH  052%=      5-min Rain = 0
KMD1 151844Z 18004KT 31/20 A2997 RMK A01 T03120198  RH  051%=      5-min Rain = 0
KMD1 151845Z 23004KT 31/20 A2997 RMK A01 T03120196  RH  050%=      5-min Rain = 0
KMD1 151846Z 26004KT 31/20 A2997 RMK A01 T03120197  RH  050%=      5-min Rain = 0
KMD1 151847Z 23003KT 31/20 A2997 RMK A01 T03110203  RH  053%=      5-min Rain = 0
KMD1 151848Z 21005KT 31/21 A2997 RMK A01 T03130207  RH  053%=      5-min Rain = 0
KMD1 151849Z 14004KT 32/20 A2997 RMK A01 T03160204  RH  052%=      5-min Rain = 0
KMD1 151850Z 11007KT 32/20 A2997 RMK A01 T03170203  RH  051%=      5-min Rain = 0
KMD1 151851Z 11009KT 31/20 A2997 RMK A01 T03140202  RH  051%=      5-min Rain = 0
KMD1 151852Z 11008KT 31/20 A2997 RMK A01 T03110200  RH  052%=      5-min Rain = 0
KMD1 151853Z 12008KT 31/20 A2997 RMK A01 T03090201  RH  053%=      5-min Rain = 0
KMD1 151854Z 15010KT 31/20 A2997 RMK A01 T03080201  RH  053%=      5-min Rain = 0
KMD1 151855Z 16011KT 31/20 A2997 RMK A01 T03080200  RH  053%=      5-min Rain = 0
KMD1 151856Z 17010KT 31/20 A2997 RMK A01 T03080202  RH  053%=      5-min Rain = 0
KMD1 151857Z 14011KT 31/20 A2997 RMK A01 T03090203  RH  053%=      5-min Rain = 0
KMD1 151858Z 14011KT 31/20 A2997 RMK A01 T03090201  RH  052%=      5-min Rain = 0
KMD1 151859Z 13009KT 31/20 A2997 RMK A01 T03080202  RH  053%=      5-min Rain = 0
KMD1 151900Z 14010KT 31/20 A2997 RMK A01 T03090199  RH  052%=      5-min Rain = 0
KMD1 151901Z 15010KT 31/20 A2997 RMK A01 T03110199  RH  051%=      5-min Rain = 0
KMD1 151902Z 14006KT 31/20 A2997 RMK A01 T03110199  RH  051%=      5-min Rain = 0
KMD1 151903Z 10005KT 31/20 A2997 RMK A01 T03110198  RH  051%=      5-min Rain = 0
KMD1 151904Z 11006KT 31/20 A2997 RMK A01 T03110199  RH  051%=      5-min Rain = 0
KMD1 151905Z 16008KT 31/20 A2997 RMK A01 T03110201  RH  052%=      5-min Rain = 0
KMD1 151906Z 16008KT 31/20 A2997 RMK A01 T03120197  RH  050%=      5-min Rain = 0
KMD1 151907Z 15007KT 31/19 A2997 RMK A01 T03100193  RH  050%=      5-min Rain = 0
KMD1 151908Z 15005KT 31/19 A2997 RMK A01 T03070194  RH  051%=      5-min Rain = 0
KMD1 151909Z 14004KT 31/19 A2997 RMK A01 T03060194  RH  051%=      5-min Rain = 0
KMD1 151910Z 13005KT 31/19 A2997 RMK A01 T03050193  RH  051%=      5-min Rain = 0
KMD1 151911Z 15005KT 31/20 A2997 RMK A01 T03060195  RH  052%=      5-min Rain = 0
KMD1 151912Z 16006KT 31/20 A2997 RMK A01 T03070198  RH  052%=      5-min Rain = 0
KMD1 151913Z 15007KT 31/20 A2997 RMK A01 T03090200  RH  052%=      5-min Rain = 0
KMD1 151914Z 15007KT 31/20 A2997 RMK A01 T03110198  RH  051%=      5-min Rain = 0
KMD1 151915Z 14006KT 31/20 A2997 RMK A01 T03100203  RH  053%=      5-min Rain = 0
KMD1 151916Z 14008KT 31/20 A2997 RMK A01 T03090203  RH  053%=      5-min Rain = 0
KMD1 151917Z 12011KT 31/20 A2996 RMK A01 T03070201  RH  053%=      5-min Rain = 0
KMD1 151918Z 14012KT 31/20 A2996 RMK A01 T03060201  RH  054%=      5-min Rain = 0
KMD1 151919Z 17009KT 31/20 A2996 RMK A01 T03050201  RH  054%=      5-min Rain = 0
KMD1 151920Z 20004KT 31/20 A2996 RMK A01 T03080202  RH  053%=      5-min Rain = 0
KMD1 151921Z 19003KT 31/20 A2996 RMK A01 T03110204  RH  053%=      5-min Rain = 0
KMD1 151922Z 19004KT 32/20 A2996 RMK A01 T03150201  RH  051%=      5-min Rain = 0
KMD1 151923Z 20005KT 32/20 A2996 RMK A01 T03160197  RH  049%=      5-min Rain = 0
KMD1 151924Z 20005KT 32/20 A2996 RMK A01 T03160199  RH  050%=      5-min Rain = 0
KMD1 151925Z 15004KT 32/20 A2996 RMK A01 T03160202  RH  051%=      5-min Rain = 0
KMD1 151926Z 17005KT 32/20 A2996 RMK A01 T03160199  RH  050%=      5-min Rain = 0
KMD1 151927Z 13007KT 32/20 A2996 RMK A01 T03170204  RH  051%=      5-min Rain = 0
KMD1 151928Z 12005KT 32/20 A2996 RMK A01 T03180202  RH  050%=      5-min Rain = 0
KMD1 151929Z 12006KT 32/20 A2996 RMK A01 T03170201  RH  050%=      5-min Rain = 0
KMD1 151930Z 14008KT 32/20 A2996 RMK A01 T03160202  RH  051%=      5-min Rain = 0
KMD1 151931Z 16005KT 32/20 A2996 RMK A01 T03170196  RH  049%=      5-min Rain = 0
KMD1 151932Z 20006KT 32/20 A2996 RMK A01 T03180195  RH  048%=      5-min Rain = 0
KMD1 151933Z 17004KT 32/19 A2996 RMK A01 T03180194  RH  048%=      5-min Rain = 0
KMD1 151934Z 16004KT 32/20 A2996 RMK A01 T03190195  RH  048%=      5-min Rain = 0
KMD1 151935Z 13005KT 32/19 A2996 RMK A01 T03200194  RH  047%=      5-min Rain = 0
KMD1 151936Z 16006KT 32/20 A2996 RMK A01 T03180196  RH  048%=      5-min Rain = 0
KMD1 151937Z 17006KT 32/20 A2996 RMK A01 T03160196  RH  049%=      5-min Rain = 0
KMD1 151938Z 16006KT 31/20 A2996 RMK A01 T03140196  RH  050%=      5-min Rain = 0
KMD1 151939Z 16008KT 31/20 A2996 RMK A01 T03120198  RH  051%=      5-min Rain = 0
KMD1 151940Z 16009KT 31/20 A2996 RMK A01 T03130195  RH  050%=      5-min Rain = 0
KMD1 151941Z 16009KT 31/20 A2996 RMK A01 T03130197  RH  050%=      5-min Rain = 0
KMD1 151942Z 16008KT 31/19 A2996 RMK A01 T03120193  RH  049%=      5-min Rain = 0
KMD1 151943Z 14006KT 31/19 A2996 RMK A01 T03090192  RH  050%=      5-min Rain = 0
KMD1 151944Z 15004KT 31/19 A2996 RMK A01 T03080192  RH  050%=      5-min Rain = 0
KMD1 151945Z 14006KT 31/20 A2996 RMK A01 T03080196  RH  052%=      5-min Rain = 0
KMD1 151946Z 14007KT 31/20 A2996 RMK A01 T03080196  RH  051%=      5-min Rain = 0
KMD1 151947Z 15009KT 31/20 A2996 RMK A01 T03090195  RH  051%=      5-min Rain = 0
KMD1 151948Z 17009G14KT 31/19 A2995 RMK A01 T03100193  RH  050%=      5-min Rain = 0
KMD1 151949Z 17006KT 31/19 A2995 RMK A01 T03120190  RH  048%=      5-min Rain = 0
KMD1 151950Z 15007KT 31/19 A2995 RMK A01 T03140188  RH  047%=      5-min Rain = 0
KMD1 151951Z 15006KT 31/19 A2995 RMK A01 T03140190  RH  048%=      5-min Rain = 0
KMD1 151952Z 16009KT 32/19 A2995 RMK A01 T03150191  RH  048%=      5-min Rain = 0
KMD1 151953Z 14007KT 32/19 A2995 RMK A01 T03170189  RH  047%=      5-min Rain = 0
KMD1 151954Z 15007KT 32/19 A2995 RMK A01 T03180188  RH  046%=      5-min Rain = 0
KMD1 151955Z 18004KT 32/19 A2995 RMK A01 T03190189  RH  046%=      5-min Rain = 0
KMD1 151956Z 17006KT 32/20 A2995 RMK A01 T03210195  RH  047%=      5-min Rain = 0
KMD1 151957Z 16005KT 32/20 A2995 RMK A01 T03240197  RH  047%=      5-min Rain = 0
KMD1 151958Z 16006KT 33/19 A2995 RMK A01 T03260193  RH  046%=      5-min Rain = 0
KMD1 151959Z 16005KT 33/19 A2995 RMK A01 T03250194  RH  046%=      5-min Rain = 0
KMD1 152000Z 14007KT 32/20 A2995 RMK A01 T03230199  RH  048%=      5-min Rain = 0
KMD1 152001Z 13008KT 32/19 A2995 RMK A01 T03240193  RH  046%=      5-min Rain = 0
KMD1 152002Z 14008KT 33/20 A2995 RMK A01 T03250197  RH  047%=      5-min Rain = 0
KMD1 152003Z 14009KT 32/20 A2995 RMK A01 T03240195  RH  046%=      5-min Rain = 0
KMD1 152004Z 13007KT 32/19 A2995 RMK A01 T03230191  RH  046%=      5-min Rain = 0
KMD1 152005Z 13006KT 32/20 A2995 RMK A01 T03220196  RH  047%=      5-min Rain = 0
KMD1 152006Z 13007KT 32/20 A2995 RMK A01 T03230198  RH  048%=      5-min Rain = 0
KMD1 152007Z 12006KT 33/19 A2995 RMK A01 T03250193  RH  046%=      5-min Rain = 0
KMD1 152008Z 11005KT 32/19 A2995 RMK A01 T03230190  RH  045%=      5-min Rain = 0
KMD1 152009Z 11005KT 32/19 A2994 RMK A01 T03190190  RH  046%=      5-min Rain = 0
KMD1 152010Z 18007KT 32/19 A2994 RMK A01 T03170192  RH  047%=      5-min Rain = 0
KMD1 152011Z 18007KT 32/19 A2994 RMK A01 T03170187  RH  046%=      5-min Rain = 0
KMD1 152012Z 16009KT 32/19 A2994 RMK A01 T03170190  RH  047%=      5-min Rain = 0
KMD1 152013Z 18008KT 32/19 A2994 RMK A01 T03200191  RH  046%=      5-min Rain = 0
KMD1 152014Z 17009KT 32/19 A2994 RMK A01 T03210192  RH  046%=      5-min Rain = 0
KMD1 152015Z 16009KT 32/19 A2994 RMK A01 T03210193  RH  047%=      5-min Rain = 0
KMD1 152016Z 17009KT 32/19 A2994 RMK A01 T03220192  RH  046%=      5-min Rain = 0
KMD1 152017Z 16011KT 32/19 A2994 RMK A01 T03210194  RH  047%=      5-min Rain = 0
KMD1 152018Z 16009KT 32/19 A2994 RMK A01 T03180194  RH  048%=      5-min Rain = 0
KMD1 152019Z 15012KT 32/19 A2994 RMK A01 T03170190  RH  047%=      5-min Rain = 0
KMD1 152020Z 15010KT 32/19 A2994 RMK A01 T03190190  RH  046%=      5-min Rain = 0
KMD1 152021Z 14008KT 32/19 A2994 RMK A01 T03200188  RH  046%=      5-min Rain = 0
KMD1 152022Z 13005KT 32/19 A2994 RMK A01 T03210189  RH  046%=      5-min Rain = 0
KMD1 152023Z 15005KT 32/19 A2994 RMK A01 T03200188  RH  046%=      5-min Rain = 0
KMD1 152024Z 15006KT 32/19 A2994 RMK A01 T03180188  RH  046%=      5-min Rain = 0
KMD1 152025Z 14005KT 32/19 A2994 RMK A01 T03170187  RH  046%=      5-min Rain = 0
KMD1 152026Z 14006KT 32/19 A2994 RMK A01 T03160189  RH  047%=      5-min Rain = 0
KMD1 152027Z 14007KT 32/19 A2994 RMK A01 T03150186  RH  046%=      5-min Rain = 0
KMD1 152028Z 14006KT 32/19 A2994 RMK A01 T03160186  RH  046%=      5-min Rain = 0
KMD1 152029Z 13005KT 32/18 A2994 RMK A01 T03190183  RH  044%=      5-min Rain = 0
KMD1 152030Z 14005KT 32/19 A2993 RMK A01 T03200187  RH  045%=      5-min Rain = 0
KMD1 152031Z 13007KT 32/19 A2993 RMK A01 T03220185  RH  044%=      5-min Rain = 0
KMD1 152032Z 13002KT 32/19 A2993 RMK A01 T03230187  RH  045%=      5-min Rain = 0
KMD1 152033Z 12005KT 33/19 A2993 RMK A01 T03250187  RH  044%=      5-min Rain = 0
KMD1 152034Z 12005KT 33/19 A2993 RMK A01 T03250185  RH  043%=      5-min Rain = 0
KMD1 152035Z 12004KT 32/19 A2993 RMK A01 T03240187  RH  044%=      5-min Rain = 0
KMD1 152036Z 12006KT 33/19 A2993 RMK A01 T03250190  RH  045%=      5-min Rain = 0
KMD1 152037Z 12006KT 33/19 A2993 RMK A01 T03260187  RH  044%=      5-min Rain = 0
KMD1 152038Z 12007KT 33/19 A2993 RMK A01 T03260193  RH  045%=      5-min Rain = 0
KMD1 152039Z 13009KT 33/19 A2993 RMK A01 T03270191  RH  045%=      5-min Rain = 0
KMD1 152040Z 15008KT 33/19 A2993 RMK A01 T03270193  RH  045%=      5-min Rain = 0
KMD1 152041Z 16009KT 33/19 A2993 RMK A01 T03310188  RH  043%=      5-min Rain = 0
KMD1 152042Z 16008KT 33/18 A2992 RMK A01 T03320184  RH  042%=      5-min Rain = 0
KMD1 152043Z 14004KT 33/18 A2992 RMK A01 T03290182  RH  042%=      5-min Rain = 0
KMD1 152044Z 15003KT 33/18 A2992 RMK A01 T03270183  RH  042%=      5-min Rain = 0
KMD1 152045Z 14003KT 33/18 A2992 RMK A01 T03270181  RH  042%=      5-min Rain = 0
KMD1 152046Z 10005KT 33/19 A2992 RMK A01 T03260185  RH  043%=      5-min Rain = 0
KMD1 152047Z 13008KT 32/19 A2992 RMK A01 T03240187  RH  044%=      5-min Rain = 0
KMD1 152048Z 11010KT 32/19 A2992 RMK A01 T03240187  RH  045%=      5-min Rain = 0
KMD1 152049Z 11008KT 32/19 A2992 RMK A01 T03230185  RH  044%=      5-min Rain = 0
KMD1 152050Z 12009KT 32/18 A2992 RMK A01 T03230184  RH  044%=      5-min Rain = 0
KMD1 152051Z 11008KT 32/19 A2992 RMK A01 T03220185  RH  044%=      5-min Rain = 0
KMD1 152052Z 12006KT 32/18 A2992 RMK A01 T03220181  RH  043%=      5-min Rain = 0
KMD1 152053Z 13006KT 32/18 A2992 RMK A01 T03230183  RH  043%=      5-min Rain = 0
KMD1 152054Z 12004KT 33/19 A2992 RMK A01 T03250189  RH  045%=      5-min Rain = 0
KMD1 152055Z 07004KT 33/19 A2992 RMK A01 T03270186  RH  043%=      5-min Rain = 0
KMD1 152056Z 08006KT 33/19 A2991 RMK A01 T03270185  RH  043%=      5-min Rain = 0
KMD1 152057Z 13007KT 33/19 A2991 RMK A01 T03290187  RH  043%=      5-min Rain = 0
KMD1 152058Z 12011KT 33/19 A2991 RMK A01 T03320186  RH  042%=      5-min Rain = 0
KMD1 152059Z 11009KT 33/18 A2991 RMK A01 T03330181  RH  041%=      5-min Rain = 0
KMD1 152100Z 12011KT 33/19 A2991 RMK A01 T03320185  RH  042%=      5-min Rain = 0
KMD1 152101Z 12011KT 33/18 A2991 RMK A01 T03330184  RH  041%=      5-min Rain = 0
KMD1 152102Z 14010KT 33/18 A2991 RMK A01 T03320182  RH  041%=      5-min Rain = 0
KMD1 152103Z 14010KT 33/18 A2991 RMK A01 T03300184  RH  042%=      5-min Rain = 0
KMD1 152104Z 13009KT 33/18 A2991 RMK A01 T03290178  RH  041%=      5-min Rain = 0
KMD1 152105Z 13009KT 33/18 A2991 RMK A01 T03270182  RH  042%=      5-min Rain = 0
KMD1 152106Z 13008KT 33/18 A2991 RMK A01 T03290180  RH  041%=      5-min Rain = 0
KMD1 152107Z 13007KT 33/18 A299 RMK A01 T03300178  RH  040%=      5-min Rain = 0
KMD1 152108Z 14009KT 33/18 A299 RMK A01 T03290181  RH  042%=      5-min Rain = 0
KMD1 152109Z 15007KT 33/19 A299 RMK A01 T03270186  RH  043%=      5-min Rain = 0
KMD1 152110Z 13009KT 33/19 A299 RMK A01 T03280190  RH  044%=      5-min Rain = 0
KMD1 152111Z 14010KT 33/19 A299 RMK A01 T03300193  RH  044%=      5-min Rain = 0
KMD1 152112Z 16008KT 33/19 A299 RMK A01 T03320191  RH  043%=      5-min Rain = 0
KMD1 152113Z 16009KT 33/19 A299 RMK A01 T03340186  RH  042%=      5-min Rain = 0
KMD1 152114Z 17009KT 33/18 A299 RMK A01 T03340180  RH  040%=      5-min Rain = 0
KMD1 152115Z 19008KT 33/18 A299 RMK A01 T03320180  RH  040%=      5-min Rain = 0
KMD1 152116Z 17006KT 33/18 A299 RMK A01 T03300183  RH  042%=      5-min Rain = 0
KMD1 152117Z 13009KT 33/19 A299 RMK A01 T03290188  RH  043%=      5-min Rain = 0
KMD1 152118Z 13008KT 33/18 A299 RMK A01 T03300183  RH  042%=      5-min Rain = 0
KMD1 152119Z 11009KT 33/18 A299 RMK A01 T03280183  RH  042%=      5-min Rain = 0
KMD1 152120Z 13010KT 33/19 A299 RMK A01 T03280189  RH  044%=      5-min Rain = 0
KMD1 152121Z 14011KT 33/19 A299 RMK A01 T03300185  RH  042%=      5-min Rain = 0
KMD1 152122Z 15010KT 33/18 A299 RMK A01 T03310179  RH  041%=      5-min Rain = 0
KMD1 152123Z 15009KT 33/18 A299 RMK A01 T03320180  RH  041%=      5-min Rain = 0
KMD1 152124Z 13008KT 33/18 A299 RMK A01 T03310183  RH  042%=      5-min Rain = 0
KMD1 152125Z 13007KT 33/18 A299 RMK A01 T03320181  RH  041%=      5-min Rain = 0
KMD1 152126Z 13007KT 33/18 A2989 RMK A01 T03320184  RH  042%=      5-min Rain = 0
KMD1 152127Z 14006KT 33/18 A2989 RMK A01 T03340180  RH  040%=      5-min Rain = 0
KMD1 152128Z 15006KT 33/19 A2989 RMK A01 T03340185  RH  041%=      5-min Rain = 0
KMD1 152129Z 16007KT 34/18 A2989 RMK A01 T03350181  RH  040%=      5-min Rain = 0
KMD1 152130Z 14005KT 33/18 A2989 RMK A01 T03330179  RH  040%=      5-min Rain = 0
KMD1 152131Z 13005KT 33/19 A2989 RMK A01 T03310187  RH  042%=      5-min Rain = 0
KMD1 152132Z 10006KT 33/19 A2989 RMK A01 T03320187  RH  042%=      5-min Rain = 0
KMD1 152133Z 11008KT 33/19 A2989 RMK A01 T03340187  RH  042%=      5-min Rain = 0
KMD1 152134Z 15011KT 34/19 A2988 RMK A01 T03350188  RH  042%=      5-min Rain = 0
KMD1 152135Z 15011KT 34/19 A2988 RMK A01 T03350187  RH  041%=      5-min Rain = 0
KMD1 152136Z 15012KT 34/18 A2988 RMK A01 T03350183  RH  041%=      5-min Rain = 0
KMD1 152137Z 16010KT 33/18 A2988 RMK A01 T03340183  RH  041%=      5-min Rain = 0
KMD1 152138Z 17010KT 33/18 A2988 RMK A01 T03340183  RH  041%=      5-min Rain = 0
KMD1 152139Z 17008KT 33/18 A2988 RMK A01 T03330180  RH  040%=      5-min Rain = 0
KMD1 152140Z 17008KT 33/18 A2988 RMK A01 T03310183  RH  041%=      5-min Rain = 0
KMD1 152141Z 13010KT 33/19 A2988 RMK A01 T03320186  RH  042%=      5-min Rain = 0
KMD1 152142Z 14010KT 33/18 A2988 RMK A01 T03330183  RH  041%=      5-min Rain = 0
KMD1 152143Z 14009KT 33/19 A2988 RMK A01 T03320186  RH  042%=      5-min Rain = 0
KMD1 152144Z 14007KT 33/18 A2988 RMK A01 T03310184  RH  042%=      5-min Rain = 0
KMD1 152145Z 14009KT 33/18 A2988 RMK A01 T03290183  RH  042%=      5-min Rain = 0
KMD1 152146Z 13009KT 33/19 A2988 RMK A01 T03280187  RH  043%=      5-min Rain = 0
KMD1 152147Z 13006KT 33/18 A2988 RMK A01 T03300183  RH  042%=      5-min Rain = 0
KMD1 152148Z 13008KT 33/19 A2988 RMK A01 T03310185  RH  042%=      5-min Rain = 0
KMD1 152149Z 14011KT 33/19 A2988 RMK A01 T03340186  RH  042%=      5-min Rain = 0
KMD1 152150Z 14010KT 33/18 A2988 RMK A01 T03340182  RH  041%=      5-min Rain = 0
KMD1 152151Z 15010KT 33/18 A2988 RMK A01 T03330184  RH  041%=      5-min Rain = 0
KMD1 152152Z 16009KT 33/18 A2988 RMK A01 T03330181  RH  041%=      5-min Rain = 0
KMD1 152153Z 17009KT 33/18 A2988 RMK A01 T03340180  RH  040%=      5-min Rain = 0
KMD1 152154Z 15008KT 34/18 A2987 RMK A01 T03350179  RH  040%=      5-min Rain = 0
KMD1 152155Z 15010KT 33/18 A2987 RMK A01 T03340177  RH  039%=      5-min Rain = 0
KMD1 152156Z 14010KT 33/18 A2987 RMK A01 T03340178  RH  040%=      5-min Rain = 0
KMD1 152157Z 13009KT 33/17 A2987 RMK A01 T03320174  RH  039%=      5-min Rain = 0
KMD1 152158Z 13007KT 33/18 A2987 RMK A01 T03320178  RH  040%=      5-min Rain = 0
KMD1 152159Z 15005KT 33/18 A2987 RMK A01 T03330177  RH  040%=      5-min Rain = 0
KMD1 152200Z 18004KT 33/18 A2987 RMK A01 T03340182  RH  041%=      5-min Rain = 0
KMD1 152201Z 12005KT 34/18 A2987 RMK A01 T03350182  RH  040%=      5-min Rain = 0
KMD1 152202Z 13007KT 34/18 A2987 RMK A01 T03360183  RH  040%=      5-min Rain = 0
KMD1 152203Z 13009KT 34/18 A2987 RMK A01 T03360181  RH  040%=      5-min Rain = 0
KMD1 152204Z 14010KT 34/18 A2987 RMK A01 T03350182  RH  040%=      5-min Rain = 0
KMD1 152205Z 14011KT 33/18 A2987 RMK A01 T03340182  RH  041%=      5-min Rain = 0
KMD1 152206Z 15011KT 34/18 A2987 RMK A01 T03350178  RH  039%=      5-min Rain = 0
KMD1 152207Z 16012KT 33/18 A2987 RMK A01 T03330178  RH  040%=      5-min Rain = 0
KMD1 152208Z 15009KT 33/18 A2987 RMK A01 T03290178  RH  041%=      5-min Rain = 0
KMD1 152209Z 16006KT 33/18 A2987 RMK A01 T03280177  RH  041%=      5-min Rain = 0
KMD1 152210Z 14007KT 33/18 A2987 RMK A01 T03290181  RH  041%=      5-min Rain = 0
KMD1 152211Z 16007KT 33/18 A2987 RMK A01 T03320181  RH  041%=      5-min Rain = 0
KMD1 152212Z 16009KT 33/18 A2987 RMK A01 T03340183  RH  041%=      5-min Rain = 0
KMD1 152213Z 16008KT 34/18 A2987 RMK A01 T03370184  RH  040%=      5-min Rain = 0
KMD1 152214Z 16006KT 34/18 A2987 RMK A01 T03390182  RH  040%=      5-min Rain = 0
KMD1 152215Z 12005KT 34/18 A2987 RMK A01 T03390182  RH  040%=      5-min Rain = 0
KMD1 152216Z 11008KT 34/18 A2987 RMK A01 T03380183  RH  040%=      5-min Rain = 0
KMD1 152217Z 11006KT 34/18 A2987 RMK A01 T03380183  RH  040%=      5-min Rain = 0
KMD1 152218Z 13008KT 34/19 A2987 RMK A01 T03380186  RH  041%=      5-min Rain = 0
KMD1 152219Z 14009KT 34/18 A2987 RMK A01 T03380183  RH  040%=      5-min Rain = 0
KMD1 152220Z 13007KT 34/18 A2987 RMK A01 T03370184  RH  041%=      5-min Rain = 0
KMD1 152221Z 11010KT 34/19 A2987 RMK A01 T03360185  RH  041%=      5-min Rain = 0
KMD1 152222Z 13013KT 34/18 A2987 RMK A01 T03370184  RH  040%=      5-min Rain = 0
KMD1 152223Z 13014KT 34/19 A2987 RMK A01 T03350186  RH  042%=      5-min Rain = 0
KMD1 152224Z 13011KT 34/19 A2987 RMK A01 T03350188  RH  042%=      5-min Rain = 0
KMD1 152225Z 12009KT 33/19 A2987 RMK A01 T03340185  RH  041%=      5-min Rain = 0
KMD1 152226Z 10010KT 33/19 A2987 RMK A01 T03340188  RH  042%=      5-min Rain = 0
KMD1 152227Z 11011KT 34/19 A2987 RMK A01 T03350188  RH  042%=      5-min Rain = 0
KMD1 152228Z 10009KT 34/19 A2987 RMK A01 T03350186  RH  041%=      5-min Rain = 0
KMD1 152229Z 10008KT 33/19 A2987 RMK A01 T03340187  RH  042%=      5-min Rain = 0
KMD1 152230Z 08011KT 33/19 A2987 RMK A01 T03330186  RH  042%=      5-min Rain = 0
KMD1 152231Z 09009KT 33/18 A2987 RMK A01 T03320184  RH  042%=      5-min Rain = 0
KMD1 152232Z 12007KT 33/19 A2987 RMK A01 T03320188  RH  043%=      5-min Rain = 0
KMD1 152233Z 10009KT 34/19 A2987 RMK A01 T03350187  RH  042%=      5-min Rain = 0
KMD1 152234Z 11009KT 34/19 A2987 RMK A01 T03360186  RH  041%=      5-min Rain = 0
KMD1 152235Z 12010KT 34/19 A2987 RMK A01 T03350186  RH  041%=      5-min Rain = 0
KMD1 152236Z 12012KT 34/18 A2987 RMK A01 T03360181  RH  040%=      5-min Rain = 0
KMD1 152237Z 13010KT 33/18 A2987 RMK A01 T03340181  RH  040%=      5-min Rain = 0
KMD1 152238Z 14009KT 33/18 A2987 RMK A01 T03330183  RH  041%=      5-min Rain = 0
KMD1 152239Z 12010KT 33/18 A2987 RMK A01 T03330182  RH  041%=      5-min Rain = 0
KMD1 152240Z 12011KT 33/18 A2987 RMK A01 T03320183  RH  041%=      5-min Rain = 0
KMD1 152241Z 11014KT 33/18 A2987 RMK A01 T03300182  RH  041%=      5-min Rain = 0
KMD1 152242Z 10012KT 33/18 A2987 RMK A01 T03280181  RH  042%=      5-min Rain = 0
KMD1 152243Z 10010KT 33/18 A2987 RMK A01 T03250180  RH  042%=      5-min Rain = 0
KMD1 152244Z 11010KT 33/18 A2987 RMK A01 T03250183  RH  043%=      5-min Rain = 0
KMD1 152245Z 11011KT 33/18 A2987 RMK A01 T03260181  RH  042%=      5-min Rain = 0
KMD1 152246Z 11008KT 33/18 A2987 RMK A01 T03270181  RH  042%=      5-min Rain = 0
KMD1 152247Z 13009KT 33/18 A2987 RMK A01 T03280181  RH  042%=      5-min Rain = 0
KMD1 152248Z 12006KT 33/18 A2987 RMK A01 T03290180  RH  041%=      5-min Rain = 0
KMD1 152249Z 12008KT 33/19 A2987 RMK A01 T03300185  RH  042%=      5-min Rain = 0
KMD1 152250Z 12011KT 33/18 A2987 RMK A01 T03310180  RH  041%=      5-min Rain = 0
KMD1 152251Z 13013KT 33/18 A2987 RMK A01 T03310180  RH  041%=      5-min Rain = 0
KMD1 152252Z 13012KT 33/18 A2987 RMK A01 T03290180  RH  041%=      5-min Rain = 0
KMD1 152253Z 13010KT 33/18 A2987 RMK A01 T03280178  RH  041%=      5-min Rain = 0
KMD1 152254Z 14008KT 33/18 A2987 RMK A01 T03270180  RH  042%=      5-min Rain = 0
KMD1 152255Z 14008KT 33/18 A2987 RMK A01 T03270182  RH  042%=      5-min Rain = 0
KMD1 152256Z 12010KT 33/18 A2987 RMK A01 T03270182  RH  042%=      5-min Rain = 0
KMD1 152257Z 13010KT 33/18 A2987 RMK A01 T03270182  RH  042%=      5-min Rain = 0
KMD1 152258Z 12008KT 33/18 A2987 RMK A01 T03260184  RH  043%=      5-min Rain = 0
KMD1 152259Z 13007KT 33/19 A2987 RMK A01 T03250186  RH  044%=      5-min Rain = 0
KMD1 152300Z 15007KT 33/19 A2987 RMK A01 T03250188  RH  044%=      5-min Rain = 0
KMD1 152301Z 15008KT 33/19 A2987 RMK A01 T03250185  RH  044%=      5-min Rain = 0
KMD1 152302Z 14008KT 32/18 A2987 RMK A01 T03240184  RH  043%=      5-min Rain = 0
KMD1 152303Z 13007KT 32/18 A2987 RMK A01 T03230183  RH  043%=      5-min Rain = 0
KMD1 152304Z 14010KT 32/18 A2987 RMK A01 T03220182  RH  043%=      5-min Rain = 0
KMD1 152305Z 13012KT 32/18 A2987 RMK A01 T03210183  RH  044%=      5-min Rain = 0
KMD1 152306Z 14010KT 32/18 A2987 RMK A01 T03200183  RH  044%=      5-min Rain = 0
KMD1 152307Z 12010KT 32/18 A2987 RMK A01 T03200184  RH  044%=      5-min Rain = 0
KMD1 152308Z 11011KT 32/18 A2987 RMK A01 T03190183  RH  044%=      5-min Rain = 0
KMD1 152309Z 11011KT 32/18 A2987 RMK A01 T03190183  RH  045%=      5-min Rain = 0
KMD1 152310Z 10010KT 32/18 A2987 RMK A01 T03170184  RH  045%=      5-min Rain = 0
KMD1 152311Z 10008KT 32/18 A2987 RMK A01 T03170183  RH  045%=      5-min Rain = 0
KMD1 152312Z 09008KT 32/18 A2987 RMK A01 T03160182  RH  045%=      5-min Rain = 0
KMD1 152313Z 09007KT 32/18 A2987 RMK A01 T03160184  RH  046%=      5-min Rain = 0
KMD1 152314Z 10008KT 32/19 A2987 RMK A01 T03160187  RH  046%=      5-min Rain = 0
KMD1 152315Z 10010KT 32/19 A2987 RMK A01 T03150187  RH  047%=      5-min Rain = 0
KMD1 152316Z 10009KT 31/19 A2987 RMK A01 T03140188  RH  047%=      5-min Rain = 0
KMD1 152317Z 10010KT 31/19 A2986 RMK A01 T03130188  RH  047%=      5-min Rain = 0
KMD1 152318Z 10011KT 31/19 A2986 RMK A01 T03130188  RH  048%=      5-min Rain = 0
KMD1 152319Z 10009KT 31/19 A2986 RMK A01 T03120189  RH  048%=      5-min Rain = 0
KMD1 152320Z 11009KT 31/19 A2986 RMK A01 T03110189  RH  048%=      5-min Rain = 0
KMD1 152321Z 10011KT 31/19 A2986 RMK A01 T03110189  RH  048%=      5-min Rain = 0
KMD1 152322Z 10010KT 31/19 A2986 RMK A01 T03110188  RH  048%=      5-min Rain = 0
KMD1 152323Z 11009KT 31/19 A2986 RMK A01 T03110188  RH  048%=      5-min Rain = 0
KMD1 152324Z 11009KT 31/19 A2986 RMK A01 T03100188  RH  048%=      5-min Rain = 0
KMD1 152325Z 11010KT 31/19 A2986 RMK A01 T03100189  RH  048%=      5-min Rain = 0
KMD1 152326Z 11009KT 31/19 A2986 RMK A01 T03100188  RH  048%=      5-min Rain = 0
KMD1 152327Z 12009KT 31/19 A2986 RMK A01 T03090188  RH  048%=      5-min Rain = 0
KMD1 152328Z 11012KT 31/19 A2986 RMK A01 T03090187  RH  048%=      5-min Rain = 0
KMD1 152329Z 12013KT 31/19 A2987 RMK A01 T03090186  RH  048%=      5-min Rain = 0
KMD1 152330Z 12011KT 31/19 A2987 RMK A01 T03090185  RH  048%=      5-min Rain = 0
KMD1 152331Z 12011KT 31/19 A2987 RMK A01 T03090185  RH  048%=      5-min Rain = 0
KMD1 152332Z 13010KT 31/19 A2987 RMK A01 T03090187  RH  048%=      5-min Rain = 0
KMD1 152333Z 13011KT 31/19 A2987 RMK A01 T03090186  RH  048%=      5-min Rain = 0
KMD1 152334Z 13012KT 31/19 A2987 RMK A01 T03090186  RH  048%=      5-min Rain = 0
KMD1 152335Z 12012KT 31/19 A2987 RMK A01 T03090185  RH  048%=      5-min Rain = 0
KMD1 152336Z 13011KT 31/19 A2987 RMK A01 T03090185  RH  048%=      5-min Rain = 0
KMD1 152337Z 11009KT 31/19 A2987 RMK A01 T03100186  RH  048%=      5-min Rain = 0
KMD1 152338Z 11009KT 31/19 A2987 RMK A01 T03090187  RH  048%=      5-min Rain = 0
KMD1 152339Z 11009KT 31/19 A2987 RMK A01 T03090186  RH  048%=      5-min Rain = 0
KMD1 152340Z 10008KT 31/19 A2987 RMK A01 T03080187  RH  048%=      5-min Rain = 0
KMD1 152341Z 10007KT 31/19 A2988 RMK A01 T03080187  RH  049%=      5-min Rain = 0
KMD1 152342Z 10006KT 31/19 A2988 RMK A01 T03070188  RH  049%=      5-min Rain = 0
KMD1 152343Z 10007KT 31/19 A2988 RMK A01 T03060189  RH  050%=      5-min Rain = 0
KMD1 152344Z 10007KT 31/19 A2988 RMK A01 T03060188  RH  049%=      5-min Rain = 0
KMD1 152345Z 11005KT 31/19 A2988 RMK A01 T03060190  RH  050%=      5-min Rain = 0
KMD1 152346Z 11006KT 31/19 A2988 RMK A01 T03050191  RH  051%=      5-min Rain = 0
KMD1 152347Z 11006KT 30/19 A2989 RMK A01 T03040192  RH  051%=      5-min Rain = 0
KMD1 152348Z 12008KT 30/19 A2989 RMK A01 T03030190  RH  051%=      5-min Rain = 0
KMD1 152349Z 11008KT 30/19 A2989 RMK A01 T03040189  RH  050%=      5-min Rain = 0
KMD1 152350Z 12009KT 30/19 A2989 RMK A01 T03030188  RH  050%=      5-min Rain = 0
KMD1 152351Z 11009KT 30/19 A2989 RMK A01 T03040188  RH  050%=      5-min Rain = 0
KMD1 152352Z 10009KT 30/19 A2989 RMK A01 T03040188  RH  050%=      5-min Rain = 0
KMD1 152353Z 11010KT 30/19 A2989 RMK A01 T03040186  RH  049%=      5-min Rain = 0
KMD1 152354Z 11009KT 30/19 A2989 RMK A01 T03040186  RH  049%=      5-min Rain = 0
KMD1 152355Z 11010KT 30/19 A2989 RMK A01 T03040187  RH  050%=      5-min Rain = 0
KMD1 152356Z 11009KT 31/19 A2989 RMK A01 T03050187  RH  049%=      5-min Rain = 0
KMD1 152357Z 11008KT 30/19 A2989 RMK A01 T03040189  RH  050%=      5-min Rain = 0
KMD1 152358Z 11007KT 30/19 A2988 RMK A01 T03040189  RH  050%=      5-min Rain = 0
KMD1 152359Z 11008KT 30/19 A2988 RMK A01 T03030189  RH  050%=      5-min Rain = 0
KMD1 160000Z 11008KT 30/19 A2988 RMK A01 T03030188  RH  050%=      5-min Rain = 0
KMD1 160001Z 11009KT 30/19 A2988 RMK A01 T03020190  RH  051%=      5-min Rain = 0
KMD1 160002Z 12010KT 30/19 A2987 RMK A01 T03020188  RH  051%=      5-min Rain = 0
KMD1 160003Z 12010KT 30/19 A2987 RMK A01 T03010188  RH  051%=      5-min Rain = 0
KMD1 160004Z 11010KT 30/19 A2987 RMK A01 T03010188  RH  051%=      5-min Rain = 0
KMD1 160005Z 11009KT 30/19 A2987 RMK A01 T03010188  RH  051%=      5-min Rain = 0
KMD1 160006Z 11008KT 30/19 A2987 RMK A01 T03010189  RH  051%=      5-min Rain = 0
KMD1 160007Z 12009KT 30/19 A2987 RMK A01 T03000189  RH  051%=      5-min Rain = 0
KMD1 160008Z 12008KT 30/19 A2987 RMK A01 T03000189  RH  052%=      5-min Rain = 0
KMD1 160009Z 13009KT 30/19 A2987 RMK A01 T02990191  RH  052%=      5-min Rain = 0
KMD1 160010Z 13008KT 30/19 A2987 RMK A01 T02990190  RH  052%=      5-min Rain = 0
KMD1 160011Z 13008KT 30/19 A2988 RMK A01 T02990192  RH  053%=      5-min Rain = 0
KMD1 160012Z 13008KT 30/19 A2988 RMK A01 T02980191  RH  053%=      5-min Rain = 0
KMD1 160013Z 13006KT 30/20 A2988 RMK A01 T02980195  RH  054%=      5-min Rain = 0
KMD1 160014Z 13008KT 30/20 A2988 RMK A01 T02970196  RH  055%=      5-min Rain = 0
KMD1 160015Z 13008KT 30/20 A2988 RMK A01 T02960195  RH  055%=      5-min Rain = 0
KMD1 160016Z 13008KT 30/19 A2988 RMK A01 T02950194  RH  054%=      5-min Rain = 0
KMD1 160017Z 13007KT 29/20 A2988 RMK A01 T02940197  RH  056%=      5-min Rain = 0
KMD1 160018Z 14006KT 29/20 A2988 RMK A01 T02930199  RH  057%=      5-min Rain = 0
KMD1 160019Z 14006KT 29/20 A2988 RMK A01 T02920202  RH  058%=      5-min Rain = 0
KMD1 160020Z 15006KT 29/20 A2988 RMK A01 T02900199  RH  058%=      5-min Rain = 0
KMD1 160021Z 15006KT 29/20 A2988 RMK A01 T02890200  RH  059%=      5-min Rain = 0
KMD1 160022Z 14007KT 29/20 A2988 RMK A01 T02880199  RH  059%=      5-min Rain = 0
KMD1 160023Z 15007KT 29/20 A2988 RMK A01 T02870201  RH  060%=      5-min Rain = 0
KMD1 160024Z 15007KT 29/20 A2987 RMK A01 T02860198  RH  059%=      5-min Rain = 0
KMD1 160025Z 15008KT 29/20 A2987 RMK A01 T02850201  RH  060%=      5-min Rain = 0
KMD1 160026Z 16006KT 29/20 A2988 RMK A01 T02850204  RH  062%=      5-min Rain = 0
KMD1 160027Z 17006KT 28/20 A2988 RMK A01 T02830204  RH  062%=      5-min Rain = 0
KMD1 160028Z 18007KT 28/20 A2988 RMK A01 T02820203  RH  062%=      5-min Rain = 0
KMD1 160029Z 20005KT 28/20 A2988 RMK A01 T02810203  RH  063%=      5-min Rain = 0
KMD1 160030Z 21007KT 28/20 A2989 RMK A01 T02800204  RH  063%=      5-min Rain = 0
KMD1 160031Z 24007KT 28/21 A2989 RMK A01 T02790208  RH  065%=      5-min Rain = 0
KMD1 160032Z 24008KT 28/21 A299 RMK A01 T02760208  RH  066%=      5-min Rain = 0
KMD1 160033Z 25006KT 27/21 A299 RMK A01 T02730214  RH  070%=      5-min Rain = 0
KMD1 160034Z 25009KT 27/22 A299 RMK A01 T02680217  RH  074%=      5-min Rain = 0
KMD1 160035Z 25012KT 26/22 A2991 RMK A01 T02610215  RH  076%=      5-min Rain = 0
KMD1 160036Z 26013KT 25/21 A2991 RMK A01 T02540214  RH  079%=      5-min Rain = 0
KMD1 160037Z 26012G17KT 25/21 A2991 RMK A01 T02500213  RH  080%=      5-min Rain = 0
KMD1 160038Z 27014G19KT 25/21 A2991 RMK A01 T02460206  RH  078%=      5-min Rain = 0
KMD1 160039Z 26015KT 24/20 A2992 RMK A01 T02430203  RH  078%=      5-min Rain = 0
KMD1 160040Z 27014G19KT 24/20 A2992 RMK A01 T02420202  RH  079%=      5-min Rain = 0
KMD1 160041Z 27015G23KT 24/20 A2992 RMK A01 T02400202  RH  079%=      5-min Rain = 0.01
KMD1 160042Z 25015KT 24/20 A2993 RMK A01 T02380203  RH  081%=      5-min Rain = 0
KMD1 160043Z 26015KT 24/20 A2994 RMK A01 T02360203  RH  082%=      5-min Rain = 0
KMD1 160044Z 26019G26KT 24/19 A2995 RMK A01 T02350193  RH  077%=      5-min Rain = 0
KMD1 160045Z 26018G23KT 23/18 A2997 RMK A01 T02340178  RH  071%=      5-min Rain = 0.01
KMD1 160046Z 27016G22KT 23/16 A2998 RMK A01 T02320164  RH  065%=      5-min Rain = 0
KMD1 160047Z 30019G26KT 23/17 A3001 RMK A01 T02310171  RH  069%=      5-min Rain = 0.01
KMD1 160048Z 30031G38KT 23/18 A3004 RMK A01 T02270175  RH  073%=      5-min Rain = 0.02
KMD1 160049Z 31029G36KT 22/17 A3003 RMK A01 T02160172  RH  076%=      5-min Rain = 0.01
KMD1 160050Z 33040G51KT 20/17 A3001 RMK A01 T02020166  RH  079%=      5-min Rain = 0.04
KMD1 160051Z 33044G53KT 19/16 A3002 RMK A01 T01870160  RH  085%=      5-min Rain = 0.05
KMD1 160052Z 33034G43KT 18/16 A3004 RMK A01 T01750161  RH  091%=      5-min Rain = 0.04
KMD1 160053Z 32034G44KT 17/16 A3004 RMK A01 T01680160  RH  094%=      5-min Rain = 0.04
KMD1 160054Z 31032G39KT 16/16 A3004 RMK A01 T01630156  RH  095%=      5-min Rain = 0.03
KMD1 160055Z 31027G36KT 16/15 A3003 RMK A01 T01590152  RH  096%=      5-min Rain = 0.03
KMD1 160056Z 32015KT 16/15 A3003 RMK A01 T01570152  RH  097%=      5-min Rain = 0.01
KMD1 160057Z 32018G26KT 16/15 A3002 RMK A01 T01560153  RH  098%=      5-min Rain = 0.01
KMD1 160058Z 34022G30KT 16/15 A3001 RMK A01 T01570154  RH  098%=      5-min Rain = 0
KMD1 160059Z 33037G43KT 16/16 A30 RMK A01 T01610160  RH  099%=      5-min Rain = 0.01
KMD1 160100Z 34038G48KT 16/16 A30 RMK A01 T01630163  RH  099%=      5-min Rain = 0.01
KMD1 160101Z 36043G54KT 16/16 A30 RMK A01 T01630162  RH  099%=      5-min Rain = 0
KMD1 160102Z 36037G44KT 16/16 A3002 RMK A01 T01630162  RH  099%=      5-min Rain = 0.01
KMD1 160103Z 34038G47KT 16/16 A3002 RMK A01 T01640162  RH  099%=      5-min Rain = 0.01
KMD1 160104Z 36034G44KT 16/16 A3003 RMK A01 T01640163  RH  099%=      5-min Rain = 0.01
KMD1 160105Z 01032G38KT 17/17 A3003 RMK A01 T01660165  RH  099%=      5-min Rain = 0.01
KMD1 160106Z 00033G40KT 17/17 A3003 RMK A01 T01680168  RH  100%=      5-min Rain = 0.02
KMD1 160107Z 01040G53KT 17/17 A3003 RMK A01 T01690169  RH  100%=      5-min Rain = 0.03
KMD1 160108Z 01039G46KT 17/17 A3004 RMK A01 T01680167  RH  099%=      5-min Rain = 0.03
KMD1 160109Z 01042G49KT 17/17 A3004 RMK A01 T01660165  RH  099%=      5-min Rain = 0.03
KMD1 160110Z 01036G41KT 16/16 A3005 RMK A01 T01630161  RH  099%=      5-min Rain = 0.03
KMD1 160111Z 01031G37KT 16/16 A3006 RMK A01 T01610159  RH  099%=      5-min Rain = 0.03
KMD1 160112Z 01031G37KT 16/16 A3005 RMK A01 T01590158  RH  099%=      5-min Rain = 0.03
KMD1 160113Z 01030KT 16/16 A3006 RMK A01 T01570156  RH  099%=      5-min Rain = 0.01
KMD1 160114Z 01026G31KT 16/16 A3005 RMK A01 T01560155  RH  099%=      5-min Rain = 0.02
KMD1 160115Z 01029KT 16/15 A3005 RMK A01 T01560154  RH  099%=      5-min Rain = 0.02
KMD1 160116Z 02027KT 16/15 A3005 RMK A01 T01550154  RH  099%=      5-min Rain = 0.02
KMD1 160117Z 02024KT 15/15 A3005 RMK A01 T01540153  RH  099%=      5-min Rain = 0.02
KMD1 160118Z 02022KT 16/15 A3005 RMK A01 T01550154  RH  099%=      5-min Rain = 0
KMD1 160119Z 02021KT 16/15 A3005 RMK A01 T01550154  RH  099%=      5-min Rain = 0.01
KMD1 160120Z 03020G26KT 15/15 A3004 RMK A01 T01540153  RH  099%=      5-min Rain = 0
KMD1 160121Z 03019G25KT 16/15 A3004 RMK A01 T01550154  RH  099%=      5-min Rain = 0.01
KMD1 160122Z 03020KT 15/15 A3004 RMK A01 T01540154  RH  099%=      5-min Rain = 0.01
KMD1 160123Z 04019KT 16/15 A3004 RMK A01 T01550154  RH  100%=      5-min Rain = 0.01
KMD1 160124Z 03018KT 16/16 A3004 RMK A01 T01550155  RH  100%=      5-min Rain = 0
KMD1 160125Z 03017G23KT 16/16 A3004 RMK A01 T01560155  RH  100%=      5-min Rain = 0
KMD1 160126Z 04014KT 16/16 A3003 RMK A01 T01560156  RH  100%=      5-min Rain = 0.01
KMD1 160127Z 04014KT 16/16 A3003 RMK A01 T01570156  RH  100%=      5-min Rain = 0.01
KMD1 160128Z 04012KT 16/16 A3003 RMK A01 T01580157  RH  100%=      5-min Rain = 0
KMD1 160129Z 04011KT 16/16 A3003 RMK A01 T01590158  RH  099%=      5-min Rain = 0
KMD1 160130Z 05010KT 16/16 A3003 RMK A01 T01590158  RH  099%=      5-min Rain = 0.01
KMD1 160131Z 05009KT 16/16 A3002 RMK A01 T01600158  RH  099%=      5-min Rain = 0
KMD1 160132Z 05010KT 16/16 A3002 RMK A01 T01600159  RH  099%=      5-min Rain = 0
KMD1 160133Z 04010KT 16/16 A3002 RMK A01 T01600158  RH  099%=      5-min Rain = 0
KMD1 160134Z 04010KT 16/16 A3002 RMK A01 T01600159  RH  099%=      5-min Rain = 0.01
KMD1 160135Z 04010KT 16/16 A3002 RMK A01 T01610159  RH  099%=      5-min Rain = 0
KMD1 160136Z 04010KT 16/16 A3001 RMK A01 T01610159  RH  099%=      5-min Rain = 0
KMD1 160137Z 04007KT 16/16 A3001 RMK A01 T01610159  RH  099%=      5-min Rain = 0
KMD1 160138Z 05008KT 16/16 A3001 RMK A01 T01620160  RH  099%=      5-min Rain = 0
KMD1 160139Z 05009KT 16/16 A3002 RMK A01 T01630160  RH  098%=      5-min Rain = 0.01
KMD1 160140Z 05009KT 16/16 A3002 RMK A01 T01630159  RH  098%=      5-min Rain = 0
KMD1 160141Z 05008KT 16/16 A3002 RMK A01 T01630159  RH  098%=      5-min Rain = 0
KMD1 160142Z 06007KT 16/16 A3002 RMK A01 T01630159  RH  097%=      5-min Rain = 0
KMD1 160143Z 07008KT 16/16 A3002 RMK A01 T01630159  RH  097%=      5-min Rain = 0
KMD1 160144Z 08008KT 16/16 A3002 RMK A01 T01630159  RH  097%=      5-min Rain = 0
KMD1 160145Z 08009KT 16/16 A3002 RMK A01 T01640160  RH  097%=      5-min Rain = 0
KMD1 160146Z 08009KT 17/16 A3002 RMK A01 T01650160  RH  097%=      5-min Rain = 0
KMD1 160147Z 09009KT 17/16 A3002 RMK A01 T01650159  RH  096%=      5-min Rain = 0
KMD1 160148Z 10008KT 17/16 A3002 RMK A01 T01660158  RH  095%=      5-min Rain = 0
KMD1 160149Z 10007KT 17/16 A3002 RMK A01 T01670158  RH  094%=      5-min Rain = 0.02
KMD1 160150Z 11009KT 17/16 A3002 RMK A01 T01670158  RH  094%=      5-min Rain = 0
KMD1 160151Z 12008KT 17/16 A3001 RMK A01 T01680158  RH  094%=      5-min Rain = 0
KMD1 160152Z 11009KT 17/16 A3001 RMK A01 T01690159  RH  094%=      5-min Rain = 0
KMD1 160153Z 11009KT 17/16 A3001 RMK A01 T01690159  RH  094%=      5-min Rain = 0.01
KMD1 160154Z 10008KT 17/16 A3002 RMK A01 T01700159  RH  094%=      5-min Rain = 0
KMD1 160155Z 10007KT 17/16 A3002 RMK A01 T01700160  RH  094%=      5-min Rain = 0.01
KMD1 160156Z 10008KT 17/16 A3002 RMK A01 T01700161  RH  094%=      5-min Rain = 0
KMD1 160157Z 11008KT 17/16 A3002 RMK A01 T01700161  RH  094%=      5-min Rain = 0.01
KMD1 160158Z 11007KT 17/16 A3002 RMK A01 T01710161  RH  094%=      5-min Rain = 0.01
KMD1 160159Z 11009KT 17/16 A3001 RMK A01 T01700161  RH  094%=      5-min Rain = 0
KMD1 160200Z 11010KT 17/16 A3001 RMK A01 T01710161  RH  094%=      5-min Rain = 0
KMD1 160201Z 11010KT 17/16 A3001 RMK A01 T01710162  RH  094%=      5-min Rain = 0
KMD1 160202Z 11011KT 17/16 A30 RMK A01 T01720163  RH  094%=      5-min Rain = 0
KMD1 160203Z 09012KT 17/16 A30 RMK A01 T01720163  RH  094%=      5-min Rain = 0
KMD1 160204Z 09013KT 17/16 A30 RMK A01 T01720163  RH  094%=      5-min Rain = 0
KMD1 160205Z 10014KT 17/16 A30 RMK A01 T01720161  RH  093%=      5-min Rain = 0.02
KMD1 160206Z 10014KT 17/16 A2999 RMK A01 T01730158  RH  091%=      5-min Rain = 0
KMD1 160207Z 10016KT 17/16 A2997 RMK A01 T01740157  RH  090%=      5-min Rain = 0
KMD1 160208Z 10019KT 18/16 A2995 RMK A01 T01750158  RH  090%=      5-min Rain = 0
KMD1 160209Z 11022KT 18/16 A2993 RMK A01 T01750160  RH  091%=      5-min Rain = 0
KMD1 160210Z 11023KT 18/16 A2992 RMK A01 T01750159  RH  091%=      5-min Rain = 0
KMD1 160211Z 11022KT 18/16 A2991 RMK A01 T01760157  RH  089%=      5-min Rain = 0
KMD1 160212Z 11023KT 18/16 A2991 RMK A01 T01780156  RH  087%=      5-min Rain = 0
KMD1 160213Z 11023KT 18/15 A299 RMK A01 T01790154  RH  085%=      5-min Rain = 0
KMD1 160214Z 11020KT 18/15 A2989 RMK A01 T01840151  RH  081%=      5-min Rain = 0
KMD1 160215Z 11019G24KT 19/15 A2989 RMK A01 T01880149  RH  078%=      5-min Rain = 0
KMD1 160216Z 11018KT 19/15 A2989 RMK A01 T01900149  RH  077%=      5-min Rain = 0
KMD1 160217Z 11016KT 19/15 A2989 RMK A01 T01920148  RH  075%=      5-min Rain = 0
KMD1 160218Z 11016G21KT 19/15 A2989 RMK A01 T01940150  RH  076%=      5-min Rain = 0
KMD1 160219Z 11019KT 19/15 A2989 RMK A01 T01940149  RH  075%=      5-min Rain = 0
KMD1 160220Z 12020G26KT 20/15 A2989 RMK A01 T01950147  RH  073%=      5-min Rain = 0
KMD1 160221Z 11018G23KT 20/15 A2989 RMK A01 T01980146  RH  072%=      5-min Rain = 0
KMD1 160222Z 11018KT 20/15 A2989 RMK A01 T02000146  RH  071%=      5-min Rain = 0
KMD1 160223Z 11016G21KT 20/15 A2989 RMK A01 T02010146  RH  070%=      5-min Rain = 0
KMD1 160224Z 11014G21KT 20/15 A299 RMK A01 T02020149  RH  072%=      5-min Rain = 0
KMD1 160225Z 11012KT 20/15 A299 RMK A01 T02020148  RH  071%=      5-min Rain = 0
KMD1 160226Z 10011KT 20/15 A299 RMK A01 T02010149  RH  072%=      5-min Rain = 0
KMD1 160227Z 11011KT 20/15 A2991 RMK A01 T02010152  RH  073%=      5-min Rain = 0
KMD1 160228Z 11010KT 20/15 A2991 RMK A01 T01990151  RH  074%=      5-min Rain = 0
KMD1 160229Z 12009KT 20/15 A2991 RMK A01 T01980152  RH  075%=      5-min Rain = 0
KMD1 160230Z 13011KT 20/15 A2991 RMK A01 T01970153  RH  076%=      5-min Rain = 0
KMD1 160231Z 13013KT 20/15 A2991 RMK A01 T01950154  RH  077%=      5-min Rain = 0
KMD1 160232Z 14012KT 19/16 A2991 RMK A01 T01930155  RH  079%=      5-min Rain = 0
KMD1 160233Z 13012KT 19/16 A2991 RMK A01 T01910155  RH  080%=      5-min Rain = 0
KMD1 160234Z 13011KT 19/16 A2991 RMK A01 T01890156  RH  081%=      5-min Rain = 0
KMD1 160235Z 12011KT 19/16 A2991 RMK A01 T01880157  RH  082%=      5-min Rain = 0
KMD1 160236Z 12009KT 19/16 A2991 RMK A01 T01880156  RH  082%=      5-min Rain = 0
KMD1 160237Z 12009KT 19/16 A2991 RMK A01 T01870157  RH  082%=      5-min Rain = 0
KMD1 160238Z 11010G15KT 19/16 A2991 RMK A01 T01870157  RH  083%=      5-min Rain = 0
KMD1 160239Z 11010KT 19/16 A2991 RMK A01 T01880158  RH  082%=      5-min Rain = 0
KMD1 160240Z 11011KT 19/16 A2992 RMK A01 T01900159  RH  082%=      5-min Rain = 0
KMD1 160241Z 11012KT 19/16 A2992 RMK A01 T01910161  RH  082%=      5-min Rain = 0
KMD1 160242Z 11010KT 19/16 A2992 RMK A01 T01940162  RH  082%=      5-min Rain = 0
KMD1 160243Z 11011G16KT 20/16 A2992 RMK A01 T01950163  RH  081%=      5-min Rain = 0
KMD1 160244Z 11010KT 20/16 A2992 RMK A01 T01960164  RH  082%=      5-min Rain = 0
KMD1 160245Z 12010KT 20/17 A2992 RMK A01 T01970165  RH  082%=      5-min Rain = 0
KMD1 160246Z 12010KT 20/17 A2993 RMK A01 T01970166  RH  082%=      5-min Rain = 0
KMD1 160247Z 10009KT 20/17 A2993 RMK A01 T01970166  RH  083%=      5-min Rain = 0
KMD1 160248Z 10009KT 20/17 A2993 RMK A01 T01970168  RH  083%=      5-min Rain = 0
KMD1 160249Z 10008KT 20/17 A2993 RMK A01 T01970168  RH  083%=      5-min Rain = 0
KMD1 160250Z 10010KT 20/17 A2993 RMK A01 T01970167  RH  083%=      5-min Rain = 0
KMD1 160251Z 09010KT 20/17 A2993 RMK A01 T01970167  RH  083%=      5-min Rain = 0
KMD1 160252Z 09009KT 20/17 A2994 RMK A01 T01980167  RH  082%=      5-min Rain = 0
KMD1 160253Z 10005KT 20/17 A2994 RMK A01 T01980167  RH  082%=      5-min Rain = 0
KMD1 160254Z 09004KT 20/17 A2994 RMK A01 T01980168  RH  083%=      5-min Rain = 0
KMD1 160255Z 12004KT 20/17 A2994 RMK A01 T01980168  RH  083%=      5-min Rain = 0
KMD1 160256Z 09003KT 20/17 A2994 RMK A01 T01980168  RH  083%=      5-min Rain = 0
KMD1 160257Z 05001KT 20/17 A2995 RMK A01 T01980168  RH  083%=      5-min Rain = 0
KMD1 160258Z 04001KT 20/17 A2995 RMK A01 T01980167  RH  083%=      5-min Rain = 0
KMD1 160259Z 09003KT 20/17 A2995 RMK A01 T01980167  RH  082%=      5-min Rain = 0
KMD1 160300Z 01002KT 20/17 A2995 RMK A01 T01980166  RH  082%=      5-min Rain = 0
KMD1 160301Z 02003KT 20/17 A2996 RMK A01 T01980167  RH  082%=      5-min Rain = 0
KMD1 160302Z 35005KT 20/17 A2996 RMK A01 T01980168  RH  082%=      5-min Rain = 0
KMD1 160303Z 34005KT 20/17 A2996 RMK A01 T01980168  RH  083%=      5-min Rain = 0
KMD1 160304Z 34005KT 20/17 A2996 RMK A01 T01970168  RH  084%=      5-min Rain = 0
KMD1 160305Z 33005KT 20/17 A2996 RMK A01 T01950168  RH  084%=      5-min Rain = 0
KMD1 160306Z 33004KT 20/17 A2996 RMK A01 T01950168  RH  084%=      5-min Rain = 0
KMD1 160307Z 33002KT 19/17 A2997 RMK A01 T01940167  RH  084%=      5-min Rain = 0
KMD1 160308Z 31002KT 19/17 A2997 RMK A01 T01940168  RH  085%=      5-min Rain = 0
KMD1 160309Z 31002KT 19/17 A2997 RMK A01 T01940169  RH  086%=      5-min Rain = 0
KMD1 160310Z 33001KT 19/17 A2997 RMK A01 T01930169  RH  086%=      5-min Rain = 0
KMD1 160311Z 30001KT 19/17 A2997 RMK A01 T01930170  RH  086%=      5-min Rain = 0
KMD1 160312Z 31001KT 19/17 A2997 RMK A01 T01920169  RH  086%=      5-min Rain = 0
KMD1 160313Z 33002KT 19/17 A2998 RMK A01 T01920169  RH  086%=      5-min Rain = 0
KMD1 160314Z 34001KT 19/17 A2998 RMK A01 T01920170  RH  087%=      5-min Rain = 0
KMD1 160315Z 05003KT 19/17 A2998 RMK A01 T01920169  RH  087%=      5-min Rain = 0
KMD1 160316Z 02005KT 19/17 A2998 RMK A01 T01920168  RH  086%=      5-min Rain = 0
KMD1 160317Z 10003KT 19/17 A2999 RMK A01 T01930167  RH  085%=      5-min Rain = 0
KMD1 160318Z 10002KT 20/16 A2998 RMK A01 T01950163  RH  082%=      5-min Rain = 0
KMD1 160319Z 07004KT 20/16 A2998 RMK A01 T01970164  RH  081%=      5-min Rain = 0
KMD1 160320Z 11004KT 20/17 A2998 RMK A01 T01980166  RH  082%=      5-min Rain = 0
KMD1 160321Z 11003KT 20/17 A2998 RMK A01 T01980165  RH  081%=      5-min Rain = 0
KMD1 160322Z 11002KT 20/16 A2999 RMK A01 T01990164  RH  080%=      5-min Rain = 0
KMD1 160323Z 11001KT 20/16 A2999 RMK A01 T01990164  RH  080%=      5-min Rain = 0
KMD1 160324Z 12001KT 20/16 A2999 RMK A01 T01990164  RH  080%=      5-min Rain = 0
KMD1 160325Z 02003KT 20/17 A2999 RMK A01 T02000165  RH  081%=      5-min Rain = 0
KMD1 160326Z 36005KT 20/17 A2999 RMK A01 T02000166  RH  081%=      5-min Rain = 0
KMD1 160327Z 35004KT 20/17 A2999 RMK A01 T01980166  RH  082%=      5-min Rain = 0
KMD1 160328Z 00004KT 20/17 A2999 RMK A01 T01970168  RH  083%=      5-min Rain = 0
KMD1 160329Z 02003KT 20/17 A2999 RMK A01 T01950168  RH  084%=      5-min Rain = 0
KMD1 160330Z 02003KT 19/17 A2999 RMK A01 T01940167  RH  084%=      5-min Rain = 0
KMD1 160331Z 05003KT 19/17 A2999 RMK A01 T01930166  RH  085%=      5-min Rain = 0
KMD1 160332Z 08002KT 19/17 A2999 RMK A01 T01920166  RH  084%=      5-min Rain = 0
KMD1 160333Z 12002KT 19/17 A2998 RMK A01 T01930165  RH  084%=      5-min Rain = 0
KMD1 160334Z 11005KT 19/17 A2999 RMK A01 T01930166  RH  084%=      5-min Rain = 0
KMD1 160335Z 12005KT 19/17 A2999 RMK A01 T01940167  RH  084%=      5-min Rain = 0
KMD1 160336Z 13005KT 19/17 A2999 RMK A01 T01940167  RH  085%=      5-min Rain = 0
KMD1 160337Z 12006KT 19/17 A2999 RMK A01 T01940168  RH  085%=      5-min Rain = 0
KMD1 160338Z 14004KT 19/17 A2999 RMK A01 T01940167  RH  085%=      5-min Rain = 0
KMD1 160339Z 15004KT 19/17 A2999 RMK A01 T01940169  RH  085%=      5-min Rain = 0
KMD1 160340Z 13004KT 19/17 A2999 RMK A01 T01940170  RH  086%=      5-min Rain = 0
KMD1 160341Z 14005KT 19/17 A2999 RMK A01 T01940169  RH  086%=      5-min Rain = 0
KMD1 160342Z 14004KT 19/17 A2999 RMK A01 T01940168  RH  085%=      5-min Rain = 0
KMD1 160343Z 14004KT 19/17 A2999 RMK A01 T01940169  RH  085%=      5-min Rain = 0
KMD1 160344Z 15004KT 19/17 A2999 RMK A01 T01940169  RH  085%=      5-min Rain = 0
KMD1 160345Z 14004KT 19/17 A2999 RMK A01 T01940168  RH  085%=      5-min Rain = 0
KMD1 160346Z 14004KT 19/17 A2999 RMK A01 T01940168  RH  085%=      5-min Rain = 0
KMD1 160347Z 14004KT 19/17 A30 RMK A01 T01940168  RH  085%=      5-min Rain = 0
KMD1 160348Z 14004KT 19/17 A30 RMK A01 T01940168  RH  085%=      5-min Rain = 0
KMD1 160349Z 12003KT 19/17 A2999 RMK A01 T01940169  RH  085%=      5-min Rain = 0
KMD1 160350Z 13004KT 19/17 A2999 RMK A01 T01940169  RH  085%=      5-min Rain = 0
KMD1 160351Z 15005KT 19/17 A2999 RMK A01 T01940169  RH  085%=      5-min Rain = 0
KMD1 160352Z 15005KT 20/17 A2999 RMK A01 T01950168  RH  084%=      5-min Rain = 0
KMD1 160353Z 14004KT 20/17 A2999 RMK A01 T01950168  RH  084%=      5-min Rain = 0
KMD1 160354Z 14005KT 20/17 A2999 RMK A01 T01950168  RH  085%=      5-min Rain = 0
KMD1 160355Z 13005KT 20/17 A30 RMK A01 T01950169  RH  085%=      5-min Rain = 0
KMD1 160356Z 13007KT 20/17 A30 RMK A01 T01950169  RH  085%=      5-min Rain = 0
KMD1 160357Z 12006KT 20/17 A30 RMK A01 T01950169  RH  085%=      5-min Rain = 0
KMD1 160358Z 10005KT 20/17 A30 RMK A01 T01950170  RH  085%=      5-min Rain = 0
KMD1 160359Z 10004KT 19/17 A30 RMK A01 T01940169  RH  085%=      5-min Rain = 0
KMD1 160400Z 09004KT 19/17 A30 RMK A01 T01940169  RH  085%=      5-min Rain = 0
KMD1 160401Z 09004KT 19/17 A30 RMK A01 T01940170  RH  086%=      5-min Rain = 0
KMD1 160402Z 09005KT 19/17 A3001 RMK A01 T01940171  RH  086%=      5-min Rain = 0
KMD1 160403Z 10006KT 19/17 A3001 RMK A01 T01940170  RH  086%=      5-min Rain = 0
KMD1 160404Z 11006KT 19/17 A3001 RMK A01 T01930169  RH  086%=      5-min Rain = 0
KMD1 160405Z 10007KT 19/17 A3001 RMK A01 T01930169  RH  086%=      5-min Rain = 0
KMD1 160406Z 12007KT 19/17 A3001 RMK A01 T01930169  RH  086%=      5-min Rain = 0
KMD1 160407Z 13008KT 19/17 A3001 RMK A01 T01930170  RH  087%=      5-min Rain = 0
KMD1 160408Z 14008KT 19/17 A3001 RMK A01 T01930171  RH  087%=      5-min Rain = 0
KMD1 160409Z 14007KT 19/17 A3001 RMK A01 T01920171  RH  088%=      5-min Rain = 0
KMD1 160410Z 14006KT 19/17 A3001 RMK A01 T01920171  RH  088%=      5-min Rain = 0
KMD1 160411Z 14004KT 19/17 A3001 RMK A01 T01920171  RH  088%=      5-min Rain = 0
KMD1 160412Z 14004KT 19/17 A3001 RMK A01 T01920171  RH  088%=      5-min Rain = 0
KMD1 160413Z 14003KT 19/17 A3002 RMK A01 T01910172  RH  088%=      5-min Rain = 0
KMD1 160414Z 14004KT 19/17 A3002 RMK A01 T01920172  RH  088%=      5-min Rain = 0
KMD1 160415Z 15004KT 19/17 A3002 RMK A01 T01910172  RH  088%=      5-min Rain = 0
KMD1 160416Z 16004KT 19/17 A3002 RMK A01 T01910171  RH  088%=      5-min Rain = 0
KMD1 160417Z 16005KT 19/17 A3002 RMK A01 T01910171  RH  088%=      5-min Rain = 0
KMD1 160418Z 16006KT 19/17 A3002 RMK A01 T01910171  RH  088%=      5-min Rain = 0
KMD1 160419Z 15006KT 19/17 A3002 RMK A01 T01910171  RH  088%=      5-min Rain = 0
KMD1 160420Z 16005KT 19/17 A3002 RMK A01 T01910170  RH  088%=      5-min Rain = 0
KMD1 160421Z 16005KT 19/17 A3002 RMK A01 T01910171  RH  088%=      5-min Rain = 0
KMD1 160422Z 16005KT 19/17 A3002 RMK A01 T01900171  RH  088%=      5-min Rain = 0
KMD1 160423Z 16004KT 19/17 A3002 RMK A01 T01900170  RH  088%=      5-min Rain = 0
KMD1 160424Z 17004KT 19/17 A3002 RMK A01 T01900170  RH  088%=      5-min Rain = 0
KMD1 160425Z 18003KT 19/17 A3002 RMK A01 T01890170  RH  089%=      5-min Rain = 0
KMD1 160426Z 19004KT 19/17 A3002 RMK A01 T01900170  RH  088%=      5-min Rain = 0
KMD1 160427Z 18004KT 19/17 A3002 RMK A01 T01890170  RH  088%=      5-min Rain = 0
KMD1 160428Z 19004KT 19/17 A3002 RMK A01 T01900170  RH  088%=      5-min Rain = 0
KMD1 160429Z 20003KT 19/17 A3002 RMK A01 T01900170  RH  088%=      5-min Rain = 0
KMD1 160430Z 20003KT 19/17 A3002 RMK A01 T01890170  RH  088%=      5-min Rain = 0
KMD1 160431Z 20003KT 19/17 A3003 RMK A01 T01900171  RH  089%=      5-min Rain = 0
KMD1 160432Z 21003KT 19/17 A3003 RMK A01 T01890171  RH  089%=      5-min Rain = 0
KMD1 160433Z 20004KT 19/17 A3003 RMK A01 T01890170  RH  089%=      5-min Rain = 0
KMD1 160434Z 20003KT 19/17 A3003 RMK A01 T01890170  RH  089%=      5-min Rain = 0
KMD1 160435Z 20003KT 19/17 A3003 RMK A01 T01890170  RH  089%=      5-min Rain = 0
KMD1 160436Z 18002KT 19/17 A3004 RMK A01 T01880170  RH  089%=      5-min Rain = 0
KMD1 160437Z 17002KT 19/17 A3004 RMK A01 T01880169  RH  089%=      5-min Rain = 0
KMD1 160438Z 16001KT 19/17 A3004 RMK A01 T01880169  RH  089%=      5-min Rain = 0
KMD1 160439Z 16000KT 19/17 A3004 RMK A01 T01880168  RH  088%=      5-min Rain = 0
KMD1 160440Z 15000KT 19/17 A3003 RMK A01 T01880169  RH  089%=      5-min Rain = 0
KMD1 160441Z 15001KT 19/17 A3003 RMK A01 T01880170  RH  089%=      5-min Rain = 0
KMD1 160442Z 15001KT 19/17 A3003 RMK A01 T01880170  RH  089%=      5-min Rain = 0
KMD1 160443Z 15001KT 19/17 A3003 RMK A01 T01880170  RH  090%=      5-min Rain = 0
KMD1 160444Z 15002KT 19/17 A3003 RMK A01 T01880171  RH  090%=      5-min Rain = 0
KMD1 160445Z 15002KT 19/17 A3002 RMK A01 T01880172  RH  090%=      5-min Rain = 0
KMD1 160446Z 14002KT 19/17 A3002 RMK A01 T01880172  RH  090%=      5-min Rain = 0
KMD1 160447Z 15003KT 19/17 A3002 RMK A01 T01870171  RH  090%=      5-min Rain = 0
KMD1 160448Z 16003KT 19/17 A3002 RMK A01 T01880173  RH  091%=      5-min Rain = 0
KMD1 160449Z 17004KT 19/17 A3002 RMK A01 T01870173  RH  091%=      5-min Rain = 0
KMD1 160450Z 17004KT 19/17 A3002 RMK A01 T01870173  RH  091%=      5-min Rain = 0
KMD1 160451Z 17005KT 19/17 A3002 RMK A01 T01880172  RH  091%=      5-min Rain = 0
KMD1 160452Z 18004KT 19/17 A3001 RMK A01 T01880172  RH  091%=      5-min Rain = 0
KMD1 160453Z 18004KT 19/17 A3001 RMK A01 T01880173  RH  091%=      5-min Rain = 0
KMD1 160454Z 18004KT 19/17 A3001 RMK A01 T01870172  RH  091%=      5-min Rain = 0
KMD1 160455Z 16004KT 19/17 A3001 RMK A01 T01870172  RH  091%=      5-min Rain = 0
KMD1 160456Z 15003KT 19/17 A3001 RMK A01 T01870172  RH  091%=      5-min Rain = 0
KMD1 160457Z 15003KT 19/17 A3001 RMK A01 T01870172  RH  091%=      5-min Rain = 0
KMD1 160458Z 13003KT 19/17 A3001 RMK A01 T01870172  RH  091%=      5-min Rain = 0
KMD1 160459Z 12003KT 19/17 A3001 RMK A01 T01860172  RH  091%=      5-min Rain = 0

Page generated in 0.161 seconds.